Wetterdaten: Freitag, 20.07.2018
Datum Zeit Temp. Aussen Temp. o. S. +5cm Feuchte Auss Luftdruck Regen Sonnenschein Regendauer Solar Windben Empfang
20.07.2018 00:00 21,3 C 20,0 C 19,4 C 63 % 1014,1 hPa 0,0 l/m 0 min 0 min 0 W/m 6,8 km/h (2 Bft) 97,87 %
20.07.2018 00:02 21,3 C 20,0 C 19,4 C 63 % 1014,0 hPa 0,0 l/m 0 min 0 min 0 W/m 6,8 km/h (2 Bft) 94,74 %
20.07.2018 00:04 21,2 C 20,0 C 19,4 C 63 % 1014,0 hPa 0,0 l/m 0 min 0 min 0 W/m 9,0 km/h (2 Bft) 97,87 %
20.07.2018 00:08 21,2 C 20,0 C 19,4 C 63 % 1014,0 hPa 0,0 l/m 0 min 0 min 0 W/m 9,0 km/h (2 Bft) 97,92 %
20.07.2018 00:10 21,2 C 20,0 C 19,4 C 63 % 1014,1 hPa 0,0 l/m 0 min 0 min 0 W/m 2,3 km/h (1 Bft) 97,87 %
20.07.2018 00:12 21,1 C 19,4 C 19,4 C 63 % 1014,1 hPa 0,0 l/m 0 min 0 min 0 W/m 4,5 km/h (1 Bft) 95,74 %
20.07.2018 00:14 21,1 C 19,4 C 19,4 C 63 % 1014,1 hPa 0,0 l/m 0 min 0 min 0 W/m 4,5 km/h (1 Bft) 97,83 %
20.07.2018 00:16 21,1 C 19,4 C 19,4 C 63 % 1014,1 hPa 0,0 l/m 0 min 0 min 0 W/m 4,5 km/h (1 Bft) 95,74 %
20.07.2018 00:18 21,0 C 19,4 C 19,4 C 63 % 1014,1 hPa 0,0 l/m 0 min 0 min 0 W/m 6,8 km/h (2 Bft) 97,87 %
20.07.2018 00:20 21,0 C 19,4 C 18,9 C 63 % 1014,1 hPa 0,0 l/m 0 min 0 min 0 W/m 2,3 km/h (1 Bft) 97,87 %
20.07.2018 00:22 21,0 C 19,4 C 18,9 C 63 % 1014,1 hPa 0,0 l/m 0 min 0 min 0 W/m 2,3 km/h (1 Bft) 97,92 %
20.07.2018 00:24 21,0 C 19,4 C 18,9 C 63 % 1014,1 hPa 0,0 l/m 0 min 0 min 0 W/m 2,3 km/h (1 Bft) 97,83 %
20.07.2018 00:26 20,9 C 19,4 C 18,9 C 63 % 1014,0 hPa 0,0 l/m 0 min 0 min 0 W/m 4,5 km/h (1 Bft) 93,62 %
20.07.2018 00:28 20,9 C 19,4 C 18,9 C 63 % 1014,1 hPa 0,0 l/m 0 min 0 min 0 W/m 4,5 km/h (1 Bft) 95,74 %
20.07.2018 00:30 20,9 C 18,9 C 18,9 C 63 % 1014,2 hPa 0,0 l/m 0 min 0 min 0 W/m 2,3 km/h (1 Bft) 97,87 %
20.07.2018 00:32 20,8 C 18,9 C 18,9 C 64 % 1014,2 hPa 0,0 l/m 0 min 0 min 0 W/m 6,8 km/h (2 Bft) 97,87 %
20.07.2018 00:34 20,8 C 18,9 C 18,9 C 64 % 1014,1 hPa 0,0 l/m 0 min 0 min 0 W/m 2,3 km/h (1 Bft) 97,87 %
20.07.2018 00:36 20,8 C 18,9 C 18,9 C 64 % 1014,1 hPa 0,0 l/m 0 min 0 min 0 W/m 0,0 km/h (0 Bft) 97,83 %
20.07.2018 00:38 20,8 C 18,9 C 18,3 C 64 % 1014,1 hPa 0,0 l/m 0 min 0 min 0 W/m 4,5 km/h (1 Bft) 97,87 %
20.07.2018 00:40 20,7 C 18,9 C 18,3 C 64 % 1014,1 hPa 0,0 l/m 0 min 0 min 0 W/m 4,5 km/h (1 Bft) 97,87 %
20.07.2018 00:42 20,7 C 18,9 C 18,3 C 64 % 1014,1 hPa 0,0 l/m 0 min 0 min 0 W/m 2,3 km/h (1 Bft) 95,74 %
20.07.2018 00:44 20,6 C 18,9 C 18,3 C 65 % 1014,1 hPa 0,0 l/m 0 min 0 min 0 W/m 4,5 km/h (1 Bft) 97,87 %
20.07.2018 00:46 20,6 C 18,3 C 18,3 C 65 % 1014,2 hPa 0,0 l/m 0 min 0 min 0 W/m 0,0 km/h (0 Bft) 97,87 %
20.07.2018 00:48 20,6 C 18,9 C 18,3 C 65 % 1014,2 hPa 0,0 l/m 0 min 0 min 0 W/m 2,3 km/h (1 Bft) 97,83 %
20.07.2018 00:50 20,5 C 18,3 C 18,3 C 65 % 1014,2 hPa 0,0 l/m 0 min 0 min 0 W/m 2,3 km/h (1 Bft) 100,00 %
20.07.2018 00:52 20,5 C 18,3 C 18,3 C 65 % 1014,2 hPa 0,0 l/m 0 min 0 min 0 W/m 0,0 km/h (0 Bft) 100,00 %
20.07.2018 00:54 20,4 C 18,3 C 18,3 C 65 % 1014,1 hPa 0,0 l/m 0 min 0 min 0 W/m 0,0 km/h (0 Bft) 95,74 %
20.07.2018 00:56 20,4 C 18,3 C 18,3 C 66 % 1014,1 hPa 0,0 l/m 0 min 0 min 0 W/m 0,0 km/h (0 Bft) 97,87 %
20.07.2018 00:58 20,3 C 18,3 C 18,3 C 66 % 1014,1 hPa 0,0 l/m 0 min 0 min 0 W/m 2,3 km/h (1 Bft) 95,74 %
20.07.2018 01:00 20,3 C 18,3 C 18,3 C 66 % 1014,1 hPa 0,0 l/m 0 min 0 min 0 W/m 2,3 km/h (1 Bft) 97,83 %
20.07.2018 01:02 20,2 C 18,3 C 17,8 C 66 % 1014,1 hPa 0,0 l/m 0 min 0 min 0 W/m 0,0 km/h (0 Bft) 97,87 %
20.07.2018 01:04 20,2 C 18,3 C 17,8 C 66 % 1014,2 hPa 0,0 l/m 0 min 0 min 0 W/m 4,5 km/h (1 Bft) 95,74 %
20.07.2018 01:06 20,2 C 18,3 C 17,8 C 66 % 1014,1 hPa 0,0 l/m 0 min 0 min 0 W/m 2,3 km/h (1 Bft) 95,83 %
20.07.2018 01:08 20,1 C 17,8 C 17,8 C 67 % 1014,2 hPa 0,0 l/m 0 min 0 min 0 W/m 4,5 km/h (1 Bft) 95,74 %
20.07.2018 01:10 20,1 C 17,8 C 17,8 C 67 % 1014,1 hPa 0,0 l/m 0 min 0 min 0 W/m 4,5 km/h (1 Bft) 95,65 %
20.07.2018 01:12 20,0 C 17,8 C 17,8 C 67 % 1014,1 hPa 0,0 l/m 0 min 0 min 0 W/m 0,0 km/h (0 Bft) 91,49 %
20.07.2018 01:14 19,9 C 17,8 C 17,8 C 67 % 1014,1 hPa 0,0 l/m 0 min 0 min 0 W/m 2,3 km/h (1 Bft) 95,74 %
20.07.2018 01:16 19,9 C 17,8 C 17,8 C 67 % 1014,0 hPa 0,0 l/m 0 min 0 min 0 W/m 0,0 km/h (0 Bft) 95,74 %
20.07.2018 01:18 19,8 C 17,8 C 17,8 C 67 % 1014,1 hPa 0,0 l/m 0 min 0 min 0 W/m 0,0 km/h (0 Bft) 95,74 %
20.07.2018 01:20 19,8 C 17,8 C 17,8 C 67 % 1014,1 hPa 0,0 l/m 0 min 0 min 0 W/m 0,0 km/h (0 Bft) 95,74 %
20.07.2018 01:22 19,7 C 17,8 C 17,2 C 67 % 1013,9 hPa 0,0 l/m 0 min 0 min 0 W/m 0,0 km/h (0 Bft) 93,62 %
20.07.2018 01:24 19,7 C 17,2 C 17,2 C 67 % 1014,0 hPa 0,0 l/m 0 min 0 min 0 W/m 0,0 km/h (0 Bft) 95,65 %
20.07.2018 01:26 19,6 C 17,2 C 17,2 C 67 % 1014,0 hPa 0,0 l/m 0 min 0 min 0 W/m 0,0 km/h (0 Bft) 95,74 %
20.07.2018 01:28 19,6 C 17,2 C 17,2 C 68 % 1014,0 hPa 0,0 l/m 0 min 0 min 0 W/m 0,0 km/h (0 Bft) 95,74 %
20.07.2018 01:30 19,5 C 17,2 C 17,2 C 68 % 1013,9 hPa 0,0 l/m 0 min 0 min 0 W/m 0,0 km/h (0 Bft) 93,62 %
20.07.2018 01:32 19,4 C 17,2 C 17,2 C 68 % 1013,9 hPa 0,0 l/m 0 min 0 min 0 W/m 0,0 km/h (0 Bft) 95,74 %
20.07.2018 01:34 19,4 C 17,2 C 17,2 C 68 % 1014,0 hPa 0,0 l/m 0 min 0 min 0 W/m 0,0 km/h (0 Bft) 95,65 %
20.07.2018 01:36 19,4 C 17,2 C 16,7 C 68 % 1013,9 hPa 0,0 l/m 0 min 0 min 0 W/m 0,0 km/h (0 Bft) 95,74 %
20.07.2018 01:38 19,3 C 17,2 C 16,7 C 68 % 1013,9 hPa 0,0 l/m 0 min 0 min 0 W/m 0,0 km/h (0 Bft) 95,74 %
20.07.2018 01:40 19,3 C 16,7 C 16,7 C 68 % 1013,9 hPa 0,0 l/m 0 min 0 min 0 W/m 0,0 km/h (0 Bft) 95,74 %
20.07.2018 01:42 19,2 C 16,7 C 16,7 C 69 % 1013,9 hPa 0,0 l/m 0 min 0 min 0 W/m 0,0 km/h (0 Bft) 95,74 %
20.07.2018 01:44 19,2 C 16,7 C 16,7 C 69 % 1013,9 hPa 0,0 l/m 0 min 0 min 0 W/m 0,0 km/h (0 Bft) 93,62 %
20.07.2018 01:46 19,1 C 16,7 C 16,7 C 69 % 1013,8 hPa 0,0 l/m 0 min 0 min 0 W/m 0,0 km/h (0 Bft) 97,83 %
20.07.2018 01:48 19,1 C 16,7 C 16,7 C 69 % 1013,8 hPa 0,0 l/m 0 min 0 min 0 W/m 0,0 km/h (0 Bft) 97,87 %
20.07.2018 01:50 19,0 C 16,7 C 16,7 C 69 % 1013,8 hPa 0,0 l/m 0 min 0 min 0 W/m 0,0 km/h (0 Bft) 95,74 %
20.07.2018 01:52 18,9 C 16,7 C 16,7 C 69 % 1013,8 hPa 0,0 l/m 0 min 0 min 0 W/m 0,0 km/h (0 Bft) 97,87 %
20.07.2018 01:54 18,9 C 16,7 C 16,7 C 70 % 1013,8 hPa 0,0 l/m 0 min 0 min 0 W/m 0,0 km/h (0 Bft) 97,87 %
20.07.2018 01:56 18,8 C 16,7 C 16,7 C 70 % 1013,7 hPa 0,0 l/m 0 min 0 min 0 W/m 0,0 km/h (0 Bft) 97,87 %
20.07.2018 01:58 18,8 C 16,7 C 16,7 C 70 % 1013,8 hPa 0,0 l/m 0 min 0 min 0 W/m 0,0 km/h (0 Bft) 97,83 %
20.07.2018 02:00 18,7 C 16,7 C 16,7 C 70 % 1013,8 hPa 0,0 l/m 0 min 0 min 0 W/m 0,0 km/h (0 Bft) 93,62 %
20.07.2018 02:02 18,7 C 16,7 C 16,7 C 70 % 1013,7 hPa 0,0 l/m 0 min 0 min 0 W/m 0,0 km/h (0 Bft) 95,74 %
20.07.2018 02:04 18,6 C 16,7 C 16,7 C 70 % 1013,7 hPa 0,0 l/m 0 min 0 min 0 W/m 0,0 km/h (0 Bft) 97,87 %
20.07.2018 02:06 18,6 C 16,7 C 16,7 C 71 % 1013,6 hPa 0,0 l/m 0 min 0 min 0 W/m 0,0 km/h (0 Bft) 95,74 %
20.07.2018 02:08 18,5 C 16,7 C 16,7 C 71 % 1013,7 hPa 0,0 l/m 0 min 0 min 0 W/m 0,0 km/h (0 Bft) 97,87 %
20.07.2018 02:10 18,4 C 16,1 C 16,7 C 71 % 1013,6 hPa 0,0 l/m 0 min 0 min 0 W/m 0,0 km/h (0 Bft) 97,83 %
20.07.2018 02:12 18,4 C 16,1 C 16,7 C 71 % 1013,6 hPa 0,0 l/m 0 min 0 min 0 W/m 0,0 km/h (0 Bft) 97,87 %
20.07.2018 02:14 18,3 C 16,1 C 16,7 C 71 % 1013,5 hPa 0,0 l/m 0 min 0 min 0 W/m 0,0 km/h (0 Bft) 97,87 %
20.07.2018 02:16 18,3 C 16,1 C 16,7 C 71 % 1013,5 hPa 0,0 l/m 0 min 0 min 0 W/m 0,0 km/h (0 Bft) 100,00 %
20.07.2018 02:18 18,3 C 16,1 C 16,7 C 72 % 1013,6 hPa 0,0 l/m 0 min 0 min 0 W/m 0,0 km/h (0 Bft) 97,87 %
20.07.2018 02:20 18,2 C 16,1 C 16,1 C 72 % 1013,6 hPa 0,0 l/m 0 min 0 min 0 W/m 0,0 km/h (0 Bft) 100,00 %
20.07.2018 02:22 18,2 C 16,1 C 16,1 C 72 % 1013,6 hPa 0,0 l/m 0 min 0 min 0 W/m 0,0 km/h (0 Bft) 97,83 %
20.07.2018 02:24 18,1 C 16,1 C 16,1 C 72 % 1013,5 hPa 0,0 l/m 0 min 0 min 0 W/m 0,0 km/h (0 Bft) 97,87 %
20.07.2018 02:26 18,1 C 16,1 C 16,1 C 72 % 1013,6 hPa 0,0 l/m 0 min 0 min 0 W/m 2,3 km/h (1 Bft) 100,00 %
20.07.2018 02:28 18,0 C 16,1 C 16,1 C 72 % 1013,6 hPa 0,0 l/m 0 min 0 min 0 W/m 2,3 km/h (1 Bft) 97,87 %
20.07.2018 02:30 18,0 C 16,1 C 16,1 C 72 % 1013,5 hPa 0,0 l/m 0 min 0 min 0 W/m 0,0 km/h (0 Bft) 97,87 %
20.07.2018 02:32 17,9 C 16,1 C 16,1 C 72 % 1013,5 hPa 0,0 l/m 0 min 0 min 0 W/m 0,0 km/h (0 Bft) 97,83 %
20.07.2018 02:34 17,9 C 16,1 C 16,1 C 72 % 1013,5 hPa 0,0 l/m 0 min 0 min 0 W/m 0,0 km/h (0 Bft) 95,74 %
20.07.2018 02:36 17,8 C 16,1 C 16,1 C 72 % 1013,5 hPa 0,0 l/m 0 min 0 min 0 W/m 0,0 km/h (0 Bft) 100,00 %
20.07.2018 02:38 17,8 C 16,1 C 16,1 C 72 % 1013,5 hPa 0,0 l/m 0 min 0 min 0 W/m 2,3 km/h (1 Bft) 100,00 %
20.07.2018 02:40 17,8 C 16,1 C 16,1 C 72 % 1013,5 hPa 0,0 l/m 0 min 0 min 0 W/m 0,0 km/h (0 Bft) 95,74 %
20.07.2018 02:42 17,7 C 15,6 C 16,1 C 73 % 1013,4 hPa 0,0 l/m 0 min 0 min 0 W/m 0,0 km/h (0 Bft) 97,87 %
20.07.2018 02:44 17,7 C 15,6 C 16,1 C 73 % 1013,4 hPa 0,0 l/m 0 min 0 min 0 W/m 0,0 km/h (0 Bft) 97,83 %
20.07.2018 02:46 17,7 C 15,6 C 16,1 C 73 % 1013,4 hPa 0,0 l/m 0 min 0 min 0 W/m 0,0 km/h (0 Bft) 97,87 %
20.07.2018 02:48 17,6 C 15,6 C 16,1 C 74 % 1013,4 hPa 0,0 l/m 0 min 0 min 0 W/m 0,0 km/h (0 Bft) 97,87 %
20.07.2018 02:50 17,6 C 15,6 C 15,6 C 74 % 1013,3 hPa 0,0 l/m 0 min 0 min 0 W/m 0,0 km/h (0 Bft) 95,74 %
20.07.2018 02:52 17,6 C 15,6 C 15,6 C 74 % 1013,3 hPa 0,0 l/m 0 min 0 min 0 W/m 0,0 km/h (0 Bft) 97,87 %
20.07.2018 02:54 17,5 C 15,6 C 15,6 C 74 % 1013,3 hPa 0,0 l/m 0 min 0 min 0 W/m 0,0 km/h (0 Bft) 97,87 %
20.07.2018 02:56 17,4 C 15,6 C 15,6 C 75 % 1013,3 hPa 0,0 l/m 0 min 0 min 0 W/m 0,0 km/h (0 Bft) 97,83 %
20.07.2018 02:58 17,4 C 15,6 C 15,6 C 75 % 1013,3 hPa 0,0 l/m 0 min 0 min 0 W/m 0,0 km/h (0 Bft) 97,87 %
20.07.2018 03:00 17,4 C 15,6 C 15,6 C 75 % 1013,3 hPa 0,0 l/m 0 min 0 min 0 W/m 0,0 km/h (0 Bft) 97,87 %
20.07.2018 03:02 17,3 C 15,6 C 15,6 C 75 % 1013,3 hPa 0,0 l/m 0 min 0 min 0 W/m 0,0 km/h (0 Bft) 95,74 %
20.07.2018 03:04 17,3 C 15,6 C 15,6 C 75 % 1013,2 hPa 0,0 l/m 0 min 0 min 0 W/m 0,0 km/h (0 Bft) 97,87 %
20.07.2018 03:06 17,3 C 15,6 C 15,6 C 75 % 1013,2 hPa 0,0 l/m 0 min 0 min 0 W/m 0,0 km/h (0 Bft) 97,87 %
20.07.2018 03:08 17,2 C 15,0 C 15,6 C 76 % 1013,2 hPa 0,0 l/m 0 min 0 min 0 W/m 0,0 km/h (0 Bft) 95,65 %
20.07.2018 03:10 17,2 C 15,0 C 15,6 C 76 % 1013,3 hPa 0,0 l/m 0 min 0 min 0 W/m 0,0 km/h (0 Bft) 97,87 %
20.07.2018 03:12 17,2 C 15,6 C 15,6 C 76 % 1013,3 hPa 0,0 l/m 0 min 0 min 0 W/m 0,0 km/h (0 Bft) 95,74 %
20.07.2018 03:14 17,1 C 15,6 C 15,0 C 76 % 1013,2 hPa 0,0 l/m 0 min 0 min 0 W/m 0,0 km/h (0 Bft) 97,87 %
20.07.2018 03:16 17,1 C 15,6 C 15,0 C 76 % 1013,3 hPa 0,0 l/m 0 min 0 min 0 W/m 0,0 km/h (0 Bft) 97,87 %
20.07.2018 03:18 17,1 C 15,6 C 15,6 C 76 % 1013,3 hPa 0,0 l/m 0 min 0 min 0 W/m 0,0 km/h (0 Bft) 100,00 %
20.07.2018 03:20 17,0 C 15,6 C 15,0 C 76 % 1013,2 hPa 0,0 l/m 0 min 0 min 0 W/m 0,0 km/h (0 Bft) 100,00 %
20.07.2018 03:22 17,0 C 15,0 C 15,0 C 76 % 1013,2 hPa 0,0 l/m 0 min 0 min 0 W/m 0,0 km/h (0 Bft) 100,00 %
20.07.2018 03:24 16,9 C 15,0 C 15,0 C 76 % 1013,2 hPa 0,0 l/m 0 min 0 min 0 W/m 0,0 km/h (0 Bft) 100,00 %
20.07.2018 03:26 16,9 C 15,0 C 15,0 C 76 % 1013,3 hPa 0,0 l/m 0 min 0 min 0 W/m 0,0 km/h (0 Bft) 100,00 %
20.07.2018 03:28 16,8 C 15,0 C 15,0 C 77 % 1013,3 hPa 0,0 l/m 0 min 0 min 0 W/m 0,0 km/h (0 Bft) 100,00 %
20.07.2018 03:30 16,8 C 15,0 C 15,0 C 77 % 1013,3 hPa 0,0 l/m 0 min 0 min 0 W/m 0,0 km/h (0 Bft) 97,87 %
20.07.2018 03:32 16,8 C 15,0 C 15,0 C 77 % 1013,2 hPa 0,0 l/m 0 min 0 min 0 W/m 0,0 km/h (0 Bft) 100,00 %
20.07.2018 03:34 16,7 C 15,0 C 15,0 C 77 % 1013,2 hPa 0,0 l/m 0 min 0 min 0 W/m 0,0 km/h (0 Bft) 100,00 %
20.07.2018 03:36 16,7 C 15,0 C 15,0 C 77 % 1013,2 hPa 0,0 l/m 0 min 0 min 0 W/m 0,0 km/h (0 Bft) 97,87 %
20.07.2018 03:38 16,7 C 15,0 C 15,0 C 77 % 1013,1 hPa 0,0 l/m 0 min 0 min 0 W/m 0,0 km/h (0 Bft) 100,00 %
20.07.2018 03:40 16,6 C 15,0 C 15,0 C 77 % 1013,2 hPa 0,0 l/m 0 min 0 min 0 W/m 0,0 km/h (0 Bft) 100,00 %
20.07.2018 03:42 16,6 C 15,0 C 15,0 C 77 % 1013,2 hPa 0,0 l/m 0 min 0 min 0 W/m 0,0 km/h (0 Bft) 100,00 %
20.07.2018 03:44 16,6 C 15,0 C 15,0 C 77 % 1013,2 hPa 0,0 l/m 0 min 0 min 0 W/m 2,3 km/h (1 Bft) 97,87 %
20.07.2018 03:46 16,6 C 15,0 C 15,0 C 78 % 1013,2 hPa 0,0 l/m 0 min 0 min 0 W/m 0,0 km/h (0 Bft) 100,00 %
20.07.2018 03:48 16,5 C 15,0 C 15,0 C 78 % 1013,2 hPa 0,0 l/m 0 min 0 min 0 W/m 0,0 km/h (0 Bft) 100,00 %
20.07.2018 03:50 16,4 C 15,0 C 15,0 C 78 % 1013,2 hPa 0,0 l/m 0 min 0 min 0 W/m 0,0 km/h (0 Bft) 100,00 %
20.07.2018 03:52 16,4 C 15,0 C 15,0 C 78 % 1013,2 hPa 0,0 l/m 0 min 0 min 0 W/m 0,0 km/h (0 Bft) 100,00 %
20.07.2018 03:54 16,4 C 15,0 C 15,0 C 78 % 1013,1 hPa 0,0 l/m 0 min 0 min 0 W/m 2,3 km/h (1 Bft) 100,00 %
20.07.2018 03:56 16,4 C 15,0 C 15,0 C 78 % 1013,1 hPa 0,0 l/m 0 min 0 min 0 W/m 0,0 km/h (0 Bft) 100,00 %
20.07.2018 03:58 16,3 C 14,4 C 15,0 C 79 % 1013,2 hPa 0,0 l/m 0 min 0 min 0 W/m 0,0 km/h (0 Bft) 100,00 %
20.07.2018 04:00 16,3 C 14,4 C 15,0 C 79 % 1013,1 hPa 0,0 l/m 0 min 0 min 0 W/m 0,0 km/h (0 Bft) 100,00 %
20.07.2018 04:02 16,3 C 14,4 C 15,0 C 79 % 1013,1 hPa 0,0 l/m 0 min 0 min 0 W/m 0,0 km/h (0 Bft) 100,00 %
20.07.2018 04:04 16,2 C 14,4 C 15,0 C 79 % 1013,0 hPa 0,0 l/m 0 min 0 min 0 W/m 0,0 km/h (0 Bft) 91,49 %
20.07.2018 04:06 16,2 C 15,0 C 15,0 C 79 % 1012,9 hPa 0,0 l/m 0 min 0 min 0 W/m 0,0 km/h (0 Bft) 97,87 %
20.07.2018 04:08 16,2 C 15,0 C 15,0 C 79 % 1012,9 hPa 0,0 l/m 0 min 0 min 0 W/m 0,0 km/h (0 Bft) 93,62 %
20.07.2018 04:10 16,2 C 14,4 C 15,0 C 79 % 1013,0 hPa 0,0 l/m 0 min 0 min 0 W/m 0,0 km/h (0 Bft) 97,87 %
20.07.2018 04:12 16,1 C 14,4 C 15,0 C 79 % 1012,9 hPa 0,0 l/m 0 min 0 min 0 W/m 0,0 km/h (0 Bft) 97,87 %
20.07.2018 04:14 16,1 C 14,4 C 15,0 C 79 % 1012,9 hPa 0,0 l/m 0 min 0 min 0 W/m 0,0 km/h (0 Bft) 97,87 %
20.07.2018 04:16 16,1 C 15,0 C 15,0 C 79 % 1012,9 hPa 0,0 l/m 0 min 0 min 0 W/m 0,0 km/h (0 Bft) 97,87 %
20.07.2018 04:18 16,1 C 14,4 C 15,0 C 79 % 1012,9 hPa 0,0 l/m 0 min 0 min 0 W/m 0,0 km/h (0 Bft) 97,83 %
20.07.2018 04:20 16,0 C 14,4 C 15,0 C 79 % 1012,9 hPa 0,0 l/m 0 min 0 min 0 W/m 0,0 km/h (0 Bft) 97,87 %
20.07.2018 04:22 16,0 C 15,0 C 15,0 C 79 % 1012,9 hPa 0,0 l/m 0 min 0 min 0 W/m 0,0 km/h (0 Bft) 95,74 %
20.07.2018 04:24 16,0 C 15,0 C 15,0 C 79 % 1012,9 hPa 0,0 l/m 0 min 0 min 0 W/m 0,0 km/h (0 Bft) 97,87 %
20.07.2018 04:26 15,9 C 15,0 C 15,0 C 79 % 1012,9 hPa 0,0 l/m 0 min 0 min 0 W/m 0,0 km/h (0 Bft) 97,87 %
20.07.2018 04:28 15,9 C 14,4 C 14,4 C 79 % 1012,8 hPa 0,0 l/m 0 min 0 min 0 W/m 0,0 km/h (0 Bft) 97,87 %
20.07.2018 04:30 15,9 C 14,4 C 14,4 C 79 % 1012,8 hPa 0,0 l/m 0 min 0 min 0 W/m 0,0 km/h (0 Bft) 97,83 %
20.07.2018 04:32 15,9 C 14,4 C 14,4 C 79 % 1012,9 hPa 0,0 l/m 0 min 0 min 0 W/m 4,5 km/h (1 Bft) 97,87 %
20.07.2018 04:34 15,9 C 14,4 C 14,4 C 79 % 1012,9 hPa 0,0 l/m 0 min 0 min 0 W/m 2,3 km/h (1 Bft) 97,87 %
20.07.2018 04:36 15,8 C 14,4 C 14,4 C 79 % 1012,9 hPa 0,0 l/m 0 min 0 min 0 W/m 0,0 km/h (0 Bft) 97,92 %
20.07.2018 04:38 15,8 C 14,4 C 14,4 C 79 % 1012,9 hPa 0,0 l/m 0 min 0 min 0 W/m 0,0 km/h (0 Bft) 95,74 %
20.07.2018 04:40 15,8 C 14,4 C 14,4 C 80 % 1012,8 hPa 0,0 l/m 0 min 0 min 0 W/m 0,0 km/h (0 Bft) 97,83 %
20.07.2018 04:42 15,8 C 14,4 C 14,4 C 80 % 1012,9 hPa 0,0 l/m 0 min 0 min 0 W/m 0,0 km/h (0 Bft) 95,74 %
20.07.2018 04:44 15,8 C 14,4 C 14,4 C 80 % 1012,9 hPa 0,0 l/m 0 min 0 min 0 W/m 0,0 km/h (0 Bft) 97,87 %
20.07.2018 04:46 15,7 C 14,4 C 14,4 C 80 % 1012,8 hPa 0,0 l/m 0 min 0 min 0 W/m 0,0 km/h (0 Bft) 97,87 %
20.07.2018 04:48 15,7 C 14,4 C 14,4 C 80 % 1012,8 hPa 0,0 l/m 0 min 0 min 0 W/m 0,0 km/h (0 Bft) 93,62 %
20.07.2018 04:50 15,7 C 14,4 C 14,4 C 80 % 1012,8 hPa 0,0 l/m 0 min 0 min 0 W/m 0,0 km/h (0 Bft) 95,74 %
20.07.2018 04:52 15,7 C 14,4 C 14,4 C 80 % 1012,8 hPa 0,0 l/m 0 min 0 min 0 W/m 0,0 km/h (0 Bft) 95,65 %
20.07.2018 04:54 15,6 C 14,4 C 14,4 C 80 % 1012,7 hPa 0,0 l/m 0 min 0 min 0 W/m 0,0 km/h (0 Bft) 97,87 %
20.07.2018 04:56 15,6 C 14,4 C 14,4 C 80 % 1012,7 hPa 0,0 l/m 0 min 0 min 0 W/m 0,0 km/h (0 Bft) 93,62 %
20.07.2018 04:58 15,6 C 14,4 C 14,4 C 80 % 1012,7 hPa 0,0 l/m 0 min 0 min 0 W/m 0,0 km/h (0 Bft) 97,87 %
20.07.2018 05:00 15,6 C 14,4 C 14,4 C 80 % 1012,7 hPa 0,0 l/m 0 min 0 min 0 W/m 0,0 km/h (0 Bft) 97,87 %
20.07.2018 05:02 15,6 C 13,9 C 14,4 C 80 % 1012,7 hPa 0,0 l/m 0 min 0 min 0 W/m 0,0 km/h (0 Bft) 97,87 %
20.07.2018 05:04 15,5 C 14,4 C 14,4 C 80 % 1012,7 hPa 0,0 l/m 0 min 0 min 0 W/m 0,0 km/h (0 Bft) 97,87 %
20.07.2018 05:06 15,5 C 13,9 C 13,9 C 80 % 1012,7 hPa 0,0 l/m 0 min 0 min 0 W/m 0,0 km/h (0 Bft) 97,83 %
20.07.2018 05:08 15,4 C 13,9 C 13,9 C 81 % 1012,8 hPa 0,0 l/m 0 min 0 min 0 W/m 0,0 km/h (0 Bft) 95,74 %
20.07.2018 05:10 15,4 C 13,9 C 14,4 C 81 % 1012,8 hPa 0,0 l/m 0 min 0 min 0 W/m 0,0 km/h (0 Bft) 97,87 %
20.07.2018 05:12 15,4 C 13,9 C 13,9 C 81 % 1012,7 hPa 0,0 l/m 0 min 0 min 0 W/m 0,0 km/h (0 Bft) 95,74 %
20.07.2018 05:14 15,4 C 13,9 C 14,4 C 81 % 1012,7 hPa 0,0 l/m 0 min 0 min 0 W/m 0,0 km/h (0 Bft) 97,87 %
20.07.2018 05:16 15,4 C 13,9 C 14,4 C 81 % 1012,7 hPa 0,0 l/m 0 min 0 min 0 W/m 0,0 km/h (0 Bft) 97,83 %
20.07.2018 05:18 15,3 C 13,9 C 14,4 C 81 % 1012,7 hPa 0,0 l/m 0 min 0 min 0 W/m 0,0 km/h (0 Bft) 95,74 %
20.07.2018 05:20 15,3 C 13,9 C 14,4 C 81 % 1012,6 hPa 0,0 l/m 0 min 0 min 0 W/m 0,0 km/h (0 Bft) 97,87 %
20.07.2018 05:22 15,3 C 13,9 C 14,4 C 82 % 1012,7 hPa 0,0 l/m 0 min 0 min 0 W/m 0,0 km/h (0 Bft) 97,87 %
20.07.2018 05:24 15,3 C 13,9 C 13,9 C 82 % 1012,7 hPa 0,0 l/m 0 min 0 min 0 W/m 0,0 km/h (0 Bft) 95,74 %
20.07.2018 05:26 15,2 C 13,9 C 13,9 C 81 % 1012,6 hPa 0,0 l/m 0 min 0 min 0 W/m 0,0 km/h (0 Bft) 95,74 %
20.07.2018 05:28 15,2 C 13,9 C 13,9 C 82 % 1012,7 hPa 0,0 l/m 0 min 0 min 0 W/m 0,0 km/h (0 Bft) 93,48 %
20.07.2018 05:30 15,2 C 13,9 C 13,9 C 82 % 1012,6 hPa 0,0 l/m 0 min 0 min 0 W/m 0,0 km/h (0 Bft) 95,74 %
20.07.2018 05:32 15,2 C 13,9 C 13,9 C 81 % 1012,7 hPa 0,0 l/m 0 min 0 min 0 W/m 0,0 km/h (0 Bft) 95,74 %
20.07.2018 05:34 15,2 C 13,9 C 13,9 C 82 % 1012,8 hPa 0,0 l/m 0 min 0 min 3 W/m 0,0 km/h (0 Bft) 95,74 %
20.07.2018 05:35 15,2 C 13,9 C 13,9 C 82 % 1012,7 hPa 0,0 l/m 0 min 0 min 3 W/m 4,5 km/h (1 Bft) 97,37 %
20.07.2018 05:40 15,1 C 13,9 C 13,9 C 82 % 1012,7 hPa 0,0 l/m 0 min 0 min 7 W/m 0,0 km/h (0 Bft) 100,00 %
20.07.2018 05:42 15,1 C 13,9 C 13,9 C 82 % 1012,8 hPa 0,0 l/m 0 min 0 min 7 W/m 0,0 km/h (0 Bft) 97,06 %
20.07.2018 05:48 15,0 C 13,9 C 13,9 C 82 % 1012,7 hPa 0,0 l/m 0 min 0 min 7 W/m 0,0 km/h (0 Bft) 100,00 %
20.07.2018 05:50 14,9 C 13,9 C 13,9 C 82 % 1012,7 hPa 0,0 l/m 0 min 0 min 9 W/m 0,0 km/h (0 Bft) 97,87 %
20.07.2018 05:52 14,9 C 13,9 C 13,9 C 82 % 1012,6 hPa 0,0 l/m 0 min 0 min 9 W/m 0,0 km/h (0 Bft) 100,00 %
20.07.2018 05:54 14,9 C 13,9 C 13,9 C 82 % 1012,7 hPa 0,0 l/m 0 min 0 min 11 W/m 0,0 km/h (0 Bft) 95,74 %
20.07.2018 05:56 14,9 C 13,9 C 13,9 C 83 % 1012,6 hPa 0,0 l/m 0 min 0 min 11 W/m 0,0 km/h (0 Bft) 97,83 %
20.07.2018 05:58 14,9 C 13,9 C 14,4 C 83 % 1012,6 hPa 0,0 l/m 0 min 0 min 12 W/m 0,0 km/h (0 Bft) 97,87 %
20.07.2018 06:00 14,9 C 13,9 C 13,9 C 83 % 1012,6 hPa 0,0 l/m 0 min 0 min 13 W/m 0,0 km/h (0 Bft) 95,74 %
20.07.2018 06:02 14,9 C 13,9 C 13,9 C 83 % 1012,6 hPa 0,0 l/m 0 min 0 min 15 W/m 0,0 km/h (0 Bft) 97,87 %
20.07.2018 06:04 14,8 C 13,9 C 13,9 C 83 % 1012,6 hPa 0,0 l/m 0 min 0 min 16 W/m 0,0 km/h (0 Bft) 97,87 %
20.07.2018 06:08 14,8 C 13,9 C 13,9 C 83 % 1012,5 hPa 0,0 l/m 0 min 0 min 18 W/m 0,0 km/h (0 Bft) 98,78 %
20.07.2018 06:10 14,8 C 13,9 C 13,9 C 83 % 1012,5 hPa 0,0 l/m 0 min 0 min 20 W/m 0,0 km/h (0 Bft) 97,83 %
20.07.2018 06:12 14,8 C 13,9 C 13,9 C 83 % 1012,5 hPa 0,0 l/m 0 min 0 min 23 W/m 0,0 km/h (0 Bft) 97,87 %
20.07.2018 06:14 14,8 C 14,4 C 13,9 C 83 % 1012,5 hPa 0,0 l/m 0 min 0 min 24 W/m 0,0 km/h (0 Bft) 95,74 %
20.07.2018 06:16 14,8 C 14,4 C 13,9 C 83 % 1012,5 hPa 0,0 l/m 0 min 0 min 25 W/m 0,0 km/h (0 Bft) 97,87 %
20.07.2018 06:18 14,7 C 14,4 C 13,9 C 83 % 1012,5 hPa 0,0 l/m 0 min 0 min 26 W/m 0,0 km/h (0 Bft) 97,87 %
20.07.2018 06:20 14,7 C 13,9 C 14,4 C 83 % 1012,5 hPa 0,0 l/m 0 min 0 min 27 W/m 0,0 km/h (0 Bft) 97,87 %
20.07.2018 06:22 14,7 C 14,4 C 14,4 C 83 % 1012,4 hPa 0,0 l/m 0 min 0 min 28 W/m 0,0 km/h (0 Bft) 98,28 %
20.07.2018 06:24 14,7 C 14,4 C 14,4 C 84 % 1012,4 hPa 0,0 l/m 0 min 0 min 30 W/m 0,0 km/h (0 Bft) 97,14 %
20.07.2018 06:26 14,7 C 14,4 C 14,4 C 84 % 1012,5 hPa 0,0 l/m 0 min 0 min 30 W/m 0,0 km/h (0 Bft) 97,87 %
20.07.2018 06:28 14,7 C 14,4 C 14,4 C 84 % 1012,6 hPa 0,0 l/m 0 min 0 min 32 W/m 0,0 km/h (0 Bft) 97,87 %
20.07.2018 06:30 14,7 C 14,4 C 14,4 C 84 % 1012,5 hPa 0,0 l/m 0 min 0 min 33 W/m 0,0 km/h (0 Bft) 97,87 %
20.07.2018 06:32 14,7 C 14,4 C 14,4 C 84 % 1012,5 hPa 0,0 l/m 0 min 0 min 34 W/m 0,0 km/h (0 Bft) 97,87 %
20.07.2018 06:34 14,7 C 14,4 C 14,4 C 84 % 1012,4 hPa 0,0 l/m 0 min 0 min 35 W/m 0,0 km/h (0 Bft) 97,83 %
20.07.2018 06:36 14,7 C 14,4 C 14,4 C 84 % 1012,4 hPa 0,0 l/m 0 min 0 min 35 W/m 0,0 km/h (0 Bft) 95,74 %
20.07.2018 06:38 14,7 C 14,4 C 14,4 C 85 % 1012,5 hPa 0,0 l/m 0 min 0 min 33 W/m 0,0 km/h (0 Bft) 97,87 %
20.07.2018 06:40 14,7 C 14,4 C 14,4 C 85 % 1012,4 hPa 0,0 l/m 0 min 0 min 33 W/m 0,0 km/h (0 Bft) 97,87 %
20.07.2018 06:42 14,7 C 14,4 C 14,4 C 85 % 1012,5 hPa 0,0 l/m 0 min 0 min 33 W/m 0,0 km/h (0 Bft) 95,74 %
20.07.2018 06:44 14,7 C 14,4 C 14,4 C 85 % 1012,4 hPa 0,0 l/m 0 min 0 min 33 W/m 0,0 km/h (0 Bft) 100,00 %
20.07.2018 06:46 14,8 C 14,4 C 14,4 C 85 % 1012,5 hPa 0,0 l/m 0 min 0 min 33 W/m 2,3 km/h (1 Bft) 97,87 %
20.07.2018 06:48 14,8 C 14,4 C 14,4 C 85 % 1012,5 hPa 0,0 l/m 0 min 0 min 34 W/m 2,3 km/h (1 Bft) 100,00 %
20.07.2018 06:50 14,8 C 14,4 C 14,4 C 85 % 1012,4 hPa 0,0 l/m 0 min 0 min 36 W/m 2,3 km/h (1 Bft) 100,00 %
20.07.2018 06:52 14,8 C 15,0 C 14,4 C 85 % 1012,4 hPa 0,0 l/m 0 min 0 min 39 W/m 0,0 km/h (0 Bft) 100,00 %
20.07.2018 06:54 14,8 C 15,0 C 14,4 C 86 % 1012,5 hPa 0,0 l/m 0 min 0 min 40 W/m 0,0 km/h (0 Bft) 100,00 %
20.07.2018 06:56 14,8 C 15,0 C 14,4 C 86 % 1012,4 hPa 0,0 l/m 0 min 0 min 42 W/m 0,0 km/h (0 Bft) 97,87 %
20.07.2018 06:58 14,8 C 15,0 C 14,4 C 86 % 1012,4 hPa 0,0 l/m 0 min 0 min 42 W/m 0,0 km/h (0 Bft) 100,00 %
20.07.2018 07:00 14,8 C 15,0 C 14,4 C 86 % 1012,4 hPa 0,0 l/m 0 min 0 min 43 W/m 0,0 km/h (0 Bft) 100,00 %
20.07.2018 07:02 14,8 C 15,0 C 14,4 C 86 % 1012,5 hPa 0,0 l/m 0 min 0 min 45 W/m 0,0 km/h (0 Bft) 100,00 %
20.07.2018 07:04 14,8 C 15,0 C 14,4 C 86 % 1012,4 hPa 0,0 l/m 0 min 0 min 47 W/m 0,0 km/h (0 Bft) 97,87 %
20.07.2018 07:06 14,8 C 15,0 C 14,4 C 86 % 1012,4 hPa 0,0 l/m 0 min 0 min 47 W/m 0,0 km/h (0 Bft) 95,74 %
20.07.2018 07:08 14,8 C 15,0 C 15,0 C 86 % 1012,5 hPa 0,0 l/m 0 min 0 min 49 W/m 0,0 km/h (0 Bft) 97,83 %
20.07.2018 07:10 14,8 C 15,0 C 15,0 C 86 % 1012,5 hPa 0,0 l/m 0 min 0 min 50 W/m 0,0 km/h (0 Bft) 95,74 %
20.07.2018 07:12 14,9 C 15,0 C 15,0 C 86 % 1012,3 hPa 0,0 l/m 0 min 0 min 53 W/m 0,0 km/h (0 Bft) 97,87 %
20.07.2018 07:14 14,9 C 15,6 C 15,0 C 86 % 1012,3 hPa 0,0 l/m 0 min 0 min 54 W/m 0,0 km/h (0 Bft) 97,87 %
20.07.2018 07:16 14,9 C 15,6 C 15,0 C 86 % 1012,3 hPa 0,0 l/m 0 min 0 min 56 W/m 2,3 km/h (1 Bft) 93,62 %
20.07.2018 07:18 14,9 C 15,6 C 15,0 C 86 % 1012,3 hPa 0,0 l/m 0 min 0 min 57 W/m 2,3 km/h (1 Bft) 95,74 %
20.07.2018 07:20 14,9 C 15,6 C 15,0 C 86 % 1012,3 hPa 0,0 l/m 0 min 0 min 58 W/m 0,0 km/h (0 Bft) 93,48 %
20.07.2018 07:22 15,0 C 15,6 C 15,0 C 87 % 1012,3 hPa 0,0 l/m 0 min 0 min 59 W/m 0,0 km/h (0 Bft) 97,87 %
20.07.2018 07:24 15,1 C 15,6 C 15,0 C 87 % 1012,3 hPa 0,0 l/m 0 min 0 min 60 W/m 4,5 km/h (1 Bft) 95,74 %
20.07.2018 07:26 15,1 C 15,6 C 15,0 C 87 % 1012,3 hPa 0,0 l/m 0 min 0 min 60 W/m 4,5 km/h (1 Bft) 95,74 %
20.07.2018 07:28 15,1 C 15,6 C 15,0 C 87 % 1012,2 hPa 0,0 l/m 0 min 0 min 62 W/m 2,3 km/h (1 Bft) 93,62 %
20.07.2018 07:30 15,1 C 15,6 C 15,0 C 87 % 1012,2 hPa 0,0 l/m 0 min 0 min 62 W/m 4,5 km/h (1 Bft) 95,74 %
20.07.2018 07:32 15,2 C 15,6 C 15,6 C 87 % 1012,2 hPa 0,0 l/m 0 min 0 min 63 W/m 4,5 km/h (1 Bft) 95,65 %
20.07.2018 07:34 15,2 C 15,6 C 15,6 C 87 % 1012,2 hPa 0,0 l/m 0 min 0 min 63 W/m 2,3 km/h (1 Bft) 95,74 %
20.07.2018 07:36 15,2 C 15,6 C 15,6 C 87 % 1012,1 hPa 0,0 l/m 0 min 0 min 63 W/m 2,3 km/h (1 Bft) 93,62 %
20.07.2018 07:38 15,2 C 16,1 C 15,6 C 87 % 1012,1 hPa 0,0 l/m 0 min 0 min 65 W/m 2,3 km/h (1 Bft) 95,74 %
20.07.2018 07:40 15,3 C 16,1 C 15,6 C 87 % 1012,1 hPa 0,0 l/m 0 min 0 min 67 W/m 0,0 km/h (0 Bft) 95,74 %
20.07.2018 07:42 15,3 C 16,1 C 15,6 C 87 % 1012,1 hPa 0,0 l/m 0 min 0 min 68 W/m 0,0 km/h (0 Bft) 95,74 %
20.07.2018 07:44 15,3 C 16,1 C 15,6 C 87 % 1012,2 hPa 0,0 l/m 0 min 0 min 69 W/m 0,0 km/h (0 Bft) 93,48 %
20.07.2018 07:46 15,4 C 16,1 C 15,6 C 88 % 1012,2 hPa 0,0 l/m 0 min 0 min 70 W/m 2,3 km/h (1 Bft) 95,83 %
20.07.2018 07:48 15,4 C 16,7 C 15,6 C 88 % 1012,2 hPa 0,0 l/m 0 min 0 min 70 W/m 0,0 km/h (0 Bft) 93,62 %
20.07.2018 07:50 15,4 C 16,7 C 15,6 C 88 % 1012,2 hPa 0,0 l/m 0 min 0 min 71 W/m 0,0 km/h (0 Bft) 95,74 %
20.07.2018 07:52 15,4 C 16,7 C 15,6 C 88 % 1012,2 hPa 0,0 l/m 0 min 0 min 72 W/m 0,0 km/h (0 Bft) 95,74 %
20.07.2018 07:54 15,5 C 16,7 C 15,6 C 88 % 1012,2 hPa 0,0 l/m 0 min 0 min 74 W/m 0,0 km/h (0 Bft) 93,62 %
20.07.2018 07:56 15,5 C 16,7 C 15,6 C 88 % 1012,2 hPa 0,0 l/m 0 min 0 min 74 W/m 0,0 km/h (0 Bft) 97,83 %
20.07.2018 07:58 15,6 C 16,7 C 15,6 C 88 % 1012,2 hPa 0,0 l/m 0 min 0 min 76 W/m 0,0 km/h (0 Bft) 95,74 %
20.07.2018 08:00 15,6 C 16,7 C 16,1 C 88 % 1012,2 hPa 0,0 l/m 0 min 0 min 77 W/m 0,0 km/h (0 Bft) 97,87 %
20.07.2018 08:02 15,7 C 17,2 C 16,1 C 88 % 1012,3 hPa 0,0 l/m 0 min 0 min 78 W/m 0,0 km/h (0 Bft) 100,00 %
20.07.2018 08:04 15,7 C 17,2 C 16,1 C 88 % 1012,2 hPa 0,0 l/m 0 min 0 min 79 W/m 0,0 km/h (0 Bft) 100,00 %
20.07.2018 08:06 15,8 C 17,2 C 16,1 C 88 % 1012,2 hPa 0,0 l/m 0 min 0 min 81 W/m 4,5 km/h (1 Bft) 100,00 %
20.07.2018 08:08 15,9 C 17,2 C 16,1 C 88 % 1012,2 hPa 0,0 l/m 0 min 0 min 81 W/m 2,3 km/h (1 Bft) 97,87 %
20.07.2018 08:10 15,9 C 17,2 C 16,1 C 88 % 1012,2 hPa 0,0 l/m 0 min 0 min 81 W/m 2,3 km/h (1 Bft) 97,87 %
20.07.2018 08:12 15,9 C 17,2 C 16,1 C 88 % 1012,2 hPa 0,0 l/m 0 min 0 min 81 W/m 2,3 km/h (1 Bft) 97,87 %
20.07.2018 08:14 16,0 C 17,8 C 16,7 C 88 % 1012,2 hPa 0,0 l/m 0 min 0 min 84 W/m 2,3 km/h (1 Bft) 100,00 %
20.07.2018 08:16 16,1 C 17,8 C 16,7 C 88 % 1012,2 hPa 0,0 l/m 0 min 0 min 85 W/m 0,0 km/h (0 Bft) 100,00 %
20.07.2018 08:18 16,2 C 17,8 C 16,7 C 87 % 1012,2 hPa 0,0 l/m 0 min 0 min 87 W/m 4,5 km/h (1 Bft) 100,00 %
20.07.2018 08:20 16,2 C 17,8 C 16,7 C 87 % 1012,2 hPa 0,0 l/m 0 min 0 min 91 W/m 4,5 km/h (1 Bft) 100,00 %
20.07.2018 08:22 16,3 C 17,8 C 16,7 C 87 % 1012,2 hPa 0,0 l/m 0 min 0 min 94 W/m 4,5 km/h (1 Bft) 100,00 %
20.07.2018 08:24 16,4 C 17,8 C 16,7 C 87 % 1012,2 hPa 0,0 l/m 0 min 0 min 130 W/m 2,3 km/h (1 Bft) 100,00 %
20.07.2018 08:26 16,4 C 18,3 C 16,7 C 87 % 1012,2 hPa 0,0 l/m 2 min 0 min 202 W/m 4,5 km/h (1 Bft) 100,00 %
20.07.2018 08:28 16,5 C 18,3 C 16,7 C 87 % 1012,1 hPa 0,0 l/m 0 min 0 min 166 W/m 2,3 km/h (1 Bft) 97,83 %
20.07.2018 08:30 16,6 C 18,3 C 16,7 C 87 % 1012,1 hPa 0,0 l/m 0 min 0 min 106 W/m 6,8 km/h (2 Bft) 100,00 %
20.07.2018 08:32 16,6 C 18,3 C 17,2 C 87 % 1012,1 hPa 0,0 l/m 0 min 0 min 190 W/m 2,3 km/h (1 Bft) 100,00 %
20.07.2018 08:34 16,7 C 18,3 C 17,2 C 87 % 1012,1 hPa 0,0 l/m 2 min 0 min 274 W/m 4,5 km/h (1 Bft) 100,00 %
20.07.2018 08:36 16,8 C 18,9 C 17,2 C 86 % 1012,2 hPa 0,0 l/m 2 min 0 min 277 W/m 6,8 km/h (2 Bft) 100,00 %
20.07.2018 08:38 16,8 C 18,9 C 17,2 C 86 % 1012,2 hPa 0,0 l/m 2 min 0 min 288 W/m 6,8 km/h (2 Bft) 100,00 %
20.07.2018 08:40 16,9 C 18,9 C 17,2 C 86 % 1012,2 hPa 0,0 l/m 2 min 0 min 295 W/m 4,5 km/h (1 Bft) 100,00 %
20.07.2018 08:42 17,0 C 18,9 C 17,2 C 86 % 1012,2 hPa 0,0 l/m 2 min 0 min 301 W/m 4,5 km/h (1 Bft) 97,87 %
20.07.2018 08:44 17,1 C 18,9 C 17,2 C 86 % 1012,2 hPa 0,0 l/m 2 min 0 min 307 W/m 4,5 km/h (1 Bft) 100,00 %
20.07.2018 08:46 17,1 C 18,9 C 17,2 C 86 % 1012,3 hPa 0,0 l/m 2 min 0 min 308 W/m 4,5 km/h (1 Bft) 100,00 %
20.07.2018 08:48 17,2 C 19,4 C 17,2 C 86 % 1012,2 hPa 0,0 l/m 2 min 0 min 315 W/m 0,0 km/h (0 Bft) 100,00 %
20.07.2018 08:50 17,3 C 19,4 C 17,8 C 86 % 1012,2 hPa 0,0 l/m 2 min 0 min 321 W/m 4,5 km/h (1 Bft) 100,00 %
20.07.2018 08:52 17,4 C 19,4 C 17,8 C 86 % 1012,2 hPa 0,0 l/m 2 min 0 min 325 W/m 4,5 km/h (1 Bft) 100,00 %
20.07.2018 08:54 17,4 C 19,4 C 17,8 C 85 % 1012,2 hPa 0,0 l/m 2 min 0 min 330 W/m 2,3 km/h (1 Bft) 100,00 %
20.07.2018 08:56 17,5 C 19,4 C 17,8 C 85 % 1012,3 hPa 0,0 l/m 2 min 0 min 337 W/m 0,0 km/h (0 Bft) 100,00 %
20.07.2018 08:58 17,6 C 20,0 C 17,8 C 85 % 1012,3 hPa 0,0 l/m 2 min 0 min 339 W/m 0,0 km/h (0 Bft) 100,00 %
20.07.2018 09:00 17,7 C 20,0 C 17,8 C 85 % 1012,3 hPa 0,0 l/m 2 min 0 min 346 W/m 0,0 km/h (0 Bft) 97,87 %
20.07.2018 09:02 17,7 C 20,0 C 17,8 C 85 % 1012,3 hPa 0,0 l/m 2 min 0 min 355 W/m 0,0 km/h (0 Bft) 100,00 %
20.07.2018 09:04 17,8 C 20,0 C 17,8 C 85 % 1012,3 hPa 0,0 l/m 2 min 0 min 360 W/m 0,0 km/h (0 Bft) 97,83 %
20.07.2018 09:06 17,9 C 20,0 C 17,8 C 85 % 1012,3 hPa 0,0 l/m 2 min 0 min 365 W/m 0,0 km/h (0 Bft) 100,00 %
20.07.2018 09:08 18,0 C 20,6 C 18,3 C 84 % 1012,3 hPa 0,0 l/m 2 min 0 min 373 W/m 0,0 km/h (0 Bft) 100,00 %
20.07.2018 09:10 18,1 C 20,6 C 18,3 C 84 % 1012,3 hPa 0,0 l/m 2 min 0 min 380 W/m 0,0 km/h (0 Bft) 100,00 %
20.07.2018 09:12 18,2 C 20,6 C 18,3 C 84 % 1012,2 hPa 0,0 l/m 2 min 0 min 386 W/m 0,0 km/h (0 Bft) 100,00 %
20.07.2018 09:14 18,3 C 20,6 C 18,3 C 84 % 1012,3 hPa 0,0 l/m 2 min 0 min 393 W/m 4,5 km/h (1 Bft) 100,00 %
20.07.2018 09:16 18,4 C 21,1 C 18,9 C 83 % 1012,3 hPa 0,0 l/m 2 min 0 min 399 W/m 4,5 km/h (1 Bft) 97,83 %
20.07.2018 09:18 18,4 C 21,1 C 18,9 C 83 % 1012,3 hPa 0,0 l/m 2 min 0 min 408 W/m 2,3 km/h (1 Bft) 100,00 %
20.07.2018 09:20 18,6 C 21,1 C 18,9 C 83 % 1012,3 hPa 0,0 l/m 2 min 0 min 380 W/m 4,5 km/h (1 Bft) 97,87 %
20.07.2018 09:22 18,7 C 21,1 C 18,9 C 82 % 1012,2 hPa 0,0 l/m 2 min 0 min 428 W/m 2,3 km/h (1 Bft) 97,87 %
20.07.2018 09:24 18,8 C 21,7 C 18,9 C 82 % 1012,2 hPa 0,0 l/m 2 min 0 min 433 W/m 4,5 km/h (1 Bft) 97,87 %
20.07.2018 09:26 18,9 C 21,1 C 18,9 C 82 % 1012,3 hPa 0,0 l/m 2 min 0 min 441 W/m 4,5 km/h (1 Bft) 97,83 %
20.07.2018 09:28 18,9 C 21,7 C 18,9 C 82 % 1012,3 hPa 0,0 l/m 2 min 0 min 448 W/m 4,5 km/h (1 Bft) 95,74 %
20.07.2018 09:30 19,1 C 21,7 C 18,9 C 82 % 1012,3 hPa 0,0 l/m 2 min 0 min 453 W/m 4,5 km/h (1 Bft) 97,87 %
20.07.2018 09:32 19,2 C 21,7 C 19,4 C 81 % 1012,3 hPa 0,0 l/m 2 min 0 min 459 W/m 4,5 km/h (1 Bft) 97,87 %
20.07.2018 09:34 19,3 C 21,7 C 19,4 C 80 % 1012,3 hPa 0,0 l/m 2 min 0 min 468 W/m 4,5 km/h (1 Bft) 97,87 %
20.07.2018 09:36 19,3 C 22,2 C 19,4 C 80 % 1012,3 hPa 0,0 l/m 2 min 0 min 442 W/m 4,5 km/h (1 Bft) 97,87 %
20.07.2018 09:38 19,4 C 22,2 C 19,4 C 80 % 1012,3 hPa 0,0 l/m 2 min 0 min 443 W/m 6,8 km/h (2 Bft) 97,83 %
20.07.2018 09:40 19,6 C 22,2 C 19,4 C 79 % 1012,2 hPa 0,0 l/m 2 min 0 min 479 W/m 6,8 km/h (2 Bft) 97,87 %
20.07.2018 09:42 19,7 C 22,2 C 19,4 C 78 % 1012,2 hPa 0,0 l/m 2 min 0 min 480 W/m 4,5 km/h (1 Bft) 97,87 %
20.07.2018 09:44 19,8 C 22,2 C 19,4 C 78 % 1012,2 hPa 0,0 l/m 2 min 0 min 492 W/m 2,3 km/h (1 Bft) 97,87 %
20.07.2018 09:46 19,9 C 22,2 C 19,4 C 78 % 1012,2 hPa 0,0 l/m 2 min 0 min 505 W/m 2,3 km/h (1 Bft) 97,87 %
20.07.2018 09:48 20,1 C 22,2 C 19,4 C 77 % 1012,2 hPa 0,0 l/m 2 min 0 min 507 W/m 9,0 km/h (2 Bft) 95,74 %
20.07.2018 09:50 20,2 C 22,2 C 20,0 C 77 % 1012,2 hPa 0,0 l/m 2 min 0 min 512 W/m 9,0 km/h (2 Bft) 93,48 %
20.07.2018 09:52 20,3 C 22,8 C 20,0 C 77 % 1012,2 hPa 0,0 l/m 2 min 0 min 520 W/m 4,5 km/h (1 Bft) 91,67 %
20.07.2018 09:54 20,4 C 22,2 C 20,0 C 76 % 1012,1 hPa 0,0 l/m 2 min 0 min 526 W/m 11,3 km/h (2 Bft) 93,62 %
20.07.2018 09:56 20,5 C 22,2 C 20,0 C 76 % 1012,2 hPa 0,0 l/m 2 min 0 min 532 W/m 9,0 km/h (2 Bft) 93,62 %
20.07.2018 09:58 20,6 C 22,8 C 20,0 C 75 % 1012,2 hPa 0,0 l/m 2 min 0 min 539 W/m 6,8 km/h (2 Bft) 91,49 %
20.07.2018 10:00 20,7 C 22,8 C 20,0 C 75 % 1012,2 hPa 0,0 l/m 2 min 0 min 542 W/m 4,5 km/h (1 Bft) 93,62 %
20.07.2018 10:02 20,8 C 22,8 C 20,6 C 75 % 1012,3 hPa 0,0 l/m 2 min 0 min 540 W/m 6,8 km/h (2 Bft) 95,65 %
20.07.2018 10:04 20,9 C 22,8 C 20,6 C 74 % 1012,2 hPa 0,0 l/m 2 min 0 min 537 W/m 6,8 km/h (2 Bft) 91,49 %
20.07.2018 10:06 21,0 C 22,8 C 20,6 C 74 % 1012,2 hPa 0,0 l/m 2 min 0 min 549 W/m 6,8 km/h (2 Bft) 94,44 %
20.07.2018 10:08 21,1 C 23,3 C 20,6 C 74 % 1012,2 hPa 0,0 l/m 2 min 0 min 554 W/m 4,5 km/h (1 Bft) 93,62 %
20.07.2018 10:10 21,2 C 23,9 C 20,6 C 74 % 1012,1 hPa 0,0 l/m 2 min 0 min 560 W/m 4,5 km/h (1 Bft) 93,62 %
20.07.2018 10:12 21,3 C 25,0 C 20,6 C 73 % 1012,1 hPa 0,0 l/m 2 min 0 min 565 W/m 6,8 km/h (2 Bft) 91,49 %
20.07.2018 10:14 21,3 C 25,0 C 20,6 C 73 % 1012,1 hPa 0,0 l/m 2 min 0 min 570 W/m 9,0 km/h (2 Bft) 95,74 %
20.07.2018 10:16 21,4 C 25,6 C 21,1 C 73 % 1012,1 hPa 0,0 l/m 2 min 0 min 577 W/m 4,5 km/h (1 Bft) 95,65 %
20.07.2018 10:18 21,6 C 25,6 C 21,1 C 73 % 1012,1 hPa 0,0 l/m 2 min 0 min 580 W/m 4,5 km/h (1 Bft) 95,74 %
20.07.2018 10:20 21,6 C 25,6 C 21,1 C 72 % 1012,0 hPa 0,0 l/m 2 min 0 min 569 W/m 4,5 km/h (1 Bft) 94,92 %
20.07.2018 10:22 21,7 C 25,0 C 21,1 C 72 % 1012,0 hPa 0,0 l/m 2 min 0 min 607 W/m 4,5 km/h (1 Bft) 95,74 %
20.07.2018 10:24 21,8 C 25,0 C 21,1 C 71 % 1012,0 hPa 0,0 l/m 2 min 0 min 609 W/m 4,5 km/h (1 Bft) 94,29 %
20.07.2018 10:26 21,9 C 25,0 C 21,1 C 71 % 1012,0 hPa 0,0 l/m 2 min 0 min 577 W/m 9,0 km/h (2 Bft) 95,74 %
20.07.2018 10:28 21,9 C 25,0 C 21,1 C 70 % 1012,1 hPa 0,0 l/m 2 min 0 min 508 W/m 6,8 km/h (2 Bft) 93,48 %
20.07.2018 10:30 22,0 C 24,4 C 21,1 C 68 % 1012,1 hPa 0,0 l/m 2 min 0 min 566 W/m 6,8 km/h (2 Bft) 95,74 %
20.07.2018 10:32 22,1 C 25,6 C 20,6 C 68 % 1012,1 hPa 0,0 l/m 2 min 0 min 598 W/m 9,0 km/h (2 Bft) 93,88 %
20.07.2018 10:34 22,1 C 25,6 C 21,1 C 68 % 1012,1 hPa 0,0 l/m 2 min 0 min 618 W/m 11,3 km/h (2 Bft) 97,87 %
20.07.2018 10:36 22,2 C 25,6 C 21,1 C 67 % 1012,1 hPa 0,0 l/m 2 min 0 min 623 W/m 6,8 km/h (2 Bft) 97,87 %
20.07.2018 10:38 22,3 C 26,1 C 21,1 C 67 % 1012,1 hPa 0,0 l/m 2 min 0 min 626 W/m 9,0 km/h (2 Bft) 97,87 %
20.07.2018 10:40 22,4 C 26,1 C 21,1 C 67 % 1012,1 hPa 0,0 l/m 2 min 0 min 617 W/m 11,3 km/h (2 Bft) 95,65 %
20.07.2018 10:42 22,5 C 27,2 C 21,7 C 65 % 1012,0 hPa 0,0 l/m 2 min 0 min 600 W/m 6,8 km/h (2 Bft) 95,74 %
20.07.2018 10:44 22,6 C 27,8 C 21,7 C 65 % 1011,9 hPa 0,0 l/m 2 min 0 min 576 W/m 9,0 km/h (2 Bft) 97,87 %
20.07.2018 10:46 22,7 C 28,9 C 21,7 C 64 % 1011,9 hPa 0,0 l/m 2 min 0 min 577 W/m 9,0 km/h (2 Bft) 97,87 %
20.07.2018 10:48 22,8 C 28,9 C 21,7 C 64 % 1011,9 hPa 0,0 l/m 2 min 0 min 564 W/m 6,8 km/h (2 Bft) 95,74 %
20.07.2018 10:50 22,9 C 28,9 C 21,7 C 63 % 1011,8 hPa 0,0 l/m 2 min 0 min 589 W/m 4,5 km/h (1 Bft) 97,83 %
20.07.2018 10:52 22,9 C 28,9 C 21,7 C 62 % 1011,9 hPa 0,0 l/m 2 min 0 min 608 W/m 4,5 km/h (1 Bft) 97,87 %
20.07.2018 10:54 23,1 C 28,3 C 21,7 C 60 % 1011,9 hPa 0,0 l/m 2 min 0 min 620 W/m 4,5 km/h (1 Bft) 95,74 %
20.07.2018 10:56 23,2 C 28,9 C 21,7 C 59 % 1011,8 hPa 0,0 l/m 2 min 0 min 639 W/m 6,8 km/h (2 Bft) 97,87 %
20.07.2018 10:58 23,3 C 30,0 C 21,7 C 59 % 1011,8 hPa 0,0 l/m 2 min 0 min 638 W/m 6,8 km/h (2 Bft) 97,87 %
20.07.2018 11:00 23,4 C 31,1 C 22,2 C 58 % 1011,9 hPa 0,0 l/m 2 min 0 min 661 W/m 4,5 km/h (1 Bft) 97,87 %
20.07.2018 11:02 23,7 C 31,7 C 22,2 C 59 % 1011,9 hPa 0,0 l/m 2 min 0 min 672 W/m 6,8 km/h (2 Bft) 97,83 %
20.07.2018 11:04 23,8 C 32,2 C 22,2 C 60 % 1011,9 hPa 0,0 l/m 2 min 0 min 666 W/m 9,0 km/h (2 Bft) 95,74 %
20.07.2018 11:06 24,0 C 32,8 C 22,2 C 59 % 1011,8 hPa 0,0 l/m 2 min 0 min 660 W/m 9,0 km/h (2 Bft) 97,87 %
20.07.2018 11:08 24,2 C 32,2 C 22,2 C 58 % 1011,9 hPa 0,0 l/m 2 min 0 min 664 W/m 9,0 km/h (2 Bft) 100,00 %
20.07.2018 11:10 24,3 C 32,2 C 22,2 C 58 % 1011,8 hPa 0,0 l/m 2 min 0 min 675 W/m 11,3 km/h (2 Bft) 100,00 %
20.07.2018 11:12 24,5 C 32,8 C 22,2 C 58 % 1011,8 hPa 0,0 l/m 2 min 0 min 686 W/m 9,0 km/h (2 Bft) 100,00 %
20.07.2018 11:14 24,6 C 32,8 C 22,2 C 57 % 1011,9 hPa 0,0 l/m 2 min 0 min 684 W/m 6,8 km/h (2 Bft) 100,00 %
20.07.2018 11:16 24,8 C 33,3 C 22,2 C 58 % 1011,8 hPa 0,0 l/m 2 min 0 min 681 W/m 6,8 km/h (2 Bft) 100,00 %
20.07.2018 11:18 24,9 C 31,7 C 22,2 C 57 % 1011,8 hPa 0,0 l/m 2 min 0 min 608 W/m 6,8 km/h (2 Bft) 100,00 %
20.07.2018 11:20 25,1 C 31,7 C 22,2 C 57 % 1011,8 hPa 0,0 l/m 2 min 0 min 560 W/m 4,5 km/h (1 Bft) 100,00 %
20.07.2018 11:22 25,1 C 31,1 C 22,2 C 56 % 1011,8 hPa 0,0 l/m 2 min 0 min 592 W/m 6,8 km/h (2 Bft) 100,00 %
20.07.2018 11:24 25,2 C 32,2 C 22,2 C 57 % 1011,8 hPa 0,0 l/m 2 min 0 min 621 W/m 6,8 km/h (2 Bft) 100,00 %
20.07.2018 11:26 25,3 C 31,1 C 22,8 C 56 % 1011,8 hPa 0,0 l/m 2 min 0 min 618 W/m 4,5 km/h (1 Bft) 100,00 %
20.07.2018 11:28 25,4 C 31,1 C 22,8 C 55 % 1011,8 hPa 0,0 l/m 2 min 0 min 643 W/m 11,3 km/h (2 Bft) 100,00 %
20.07.2018 11:30 25,6 C 32,2 C 22,8 C 54 % 1011,8 hPa 0,0 l/m 2 min 0 min 659 W/m 9,0 km/h (2 Bft) 100,00 %
20.07.2018 11:32 25,7 C 31,7 C 22,8 C 55 % 1011,8 hPa 0,0 l/m 2 min 0 min 600 W/m 6,8 km/h (2 Bft) 100,00 %
20.07.2018 11:34 25,7 C 31,1 C 22,8 C 54 % 1011,8 hPa 0,0 l/m 2 min 0 min 548 W/m 13,5 km/h (3 Bft) 100,00 %
20.07.2018 11:36 25,8 C 31,7 C 22,8 C 55 % 1011,8 hPa 0,0 l/m 2 min 0 min 558 W/m 6,8 km/h (2 Bft) 100,00 %
20.07.2018 11:38 25,8 C 30,0 C 22,8 C 53 % 1011,8 hPa 0,0 l/m 2 min 0 min 449 W/m 9,0 km/h (2 Bft) 100,00 %
20.07.2018 11:40 25,9 C 28,9 C 22,8 C 54 % 1011,7 hPa 0,0 l/m 0 min 0 min 305 W/m 6,8 km/h (2 Bft) 100,00 %
20.07.2018 11:42 25,9 C 29,4 C 22,8 C 54 % 1011,7 hPa 0,0 l/m 0 min 0 min 377 W/m 9,0 km/h (2 Bft) 100,00 %
20.07.2018 11:44 25,9 C 29,4 C 22,8 C 55 % 1011,8 hPa 0,0 l/m 2 min 0 min 455 W/m 11,3 km/h (2 Bft) 100,00 %
20.07.2018 11:46 25,9 C 29,4 C 22,8 C 53 % 1011,8 hPa 0,0 l/m 2 min 0 min 489 W/m 6,8 km/h (2 Bft) 95,74 %
20.07.2018 11:48 25,9 C 30,0 C 22,8 C 54 % 1011,7 hPa 0,0 l/m 2 min 0 min 548 W/m 11,3 km/h (2 Bft) 100,00 %
20.07.2018 11:50 25,9 C 30,0 C 22,8 C 54 % 1011,8 hPa 0,0 l/m 2 min 0 min 527 W/m 11,3 km/h (2 Bft) 100,00 %
20.07.2018 11:52 25,9 C 31,1 C 22,8 C 54 % 1011,8 hPa 0,0 l/m 2 min 0 min 554 W/m 6,8 km/h (2 Bft) 100,00 %
20.07.2018 11:54 26,0 C 31,1 C 22,8 C 55 % 1011,8 hPa 0,0 l/m 2 min 0 min 550 W/m 9,0 km/h (2 Bft) 100,00 %
20.07.2018 11:56 26,0 C 31,1 C 22,8 C 53 % 1011,8 hPa 0,0 l/m 2 min 0 min 664 W/m 11,3 km/h (2 Bft) 100,00 %
20.07.2018 11:58 26,1 C 32,2 C 22,8 C 53 % 1011,7 hPa 0,0 l/m 2 min 0 min 704 W/m 11,3 km/h (2 Bft) 97,87 %
20.07.2018 12:00 26,1 C 33,3 C 23,3 C 54 % 1011,8 hPa 0,0 l/m 2 min 0 min 739 W/m 11,3 km/h (2 Bft) 100,00 %
20.07.2018 12:02 26,2 C 33,9 C 22,8 C 54 % 1011,8 hPa 0,0 l/m 2 min 0 min 698 W/m 9,0 km/h (2 Bft) 97,87 %
20.07.2018 12:04 26,2 C 33,3 C 22,8 C 53 % 1011,8 hPa 0,0 l/m 2 min 0 min 650 W/m 13,5 km/h (3 Bft) 100,00 %
20.07.2018 12:08 26,3 C 32,2 C 23,3 C 52 % 1011,7 hPa 0,0 l/m 4 min 0 min 589 W/m 9,0 km/h (2 Bft) 100,00 %
20.07.2018 12:10 26,4 C 32,2 C 23,3 C 52 % 1011,7 hPa 0,0 l/m 2 min 0 min 585 W/m 6,8 km/h (2 Bft) 100,00 %
20.07.2018 12:12 26,4 C 32,2 C 23,3 C 54 % 1011,7 hPa 0,0 l/m 2 min 0 min 576 W/m 4,5 km/h (1 Bft) 100,00 %
20.07.2018 12:14 26,5 C 32,8 C 23,3 C 53 % 1011,8 hPa 0,0 l/m 2 min 0 min 655 W/m 4,5 km/h (1 Bft) 100,00 %
20.07.2018 12:16 26,6 C 33,3 C 23,3 C 52 % 1011,7 hPa 0,0 l/m 2 min 0 min 708 W/m 9,0 km/h (2 Bft) 100,00 %
20.07.2018 12:18 26,6 C 33,3 C 23,3 C 51 % 1011,7 hPa 0,0 l/m 2 min 0 min 675 W/m 6,8 km/h (2 Bft) 97,87 %
20.07.2018 12:20 26,7 C 33,9 C 23,3 C 54 % 1011,7 hPa 0,0 l/m 2 min 0 min 681 W/m 9,0 km/h (2 Bft) 97,87 %
20.07.2018 12:22 26,8 C 33,3 C 23,3 C 51 % 1011,6 hPa 0,0 l/m 2 min 0 min 652 W/m 6,8 km/h (2 Bft) 95,65 %
20.07.2018 12:24 26,8 C 32,8 C 23,9 C 51 % 1011,7 hPa 0,0 l/m 2 min 0 min 530 W/m 9,0 km/h (2 Bft) 97,87 %
20.07.2018 12:26 26,9 C 32,2 C 23,9 C 50 % 1011,7 hPa 0,0 l/m 2 min 0 min 464 W/m 4,5 km/h (1 Bft) 97,87 %
20.07.2018 12:28 27,0 C 32,2 C 23,9 C 51 % 1011,7 hPa 0,0 l/m 2 min 0 min 454 W/m 2,3 km/h (1 Bft) 95,74 %
20.07.2018 12:30 27,1 C 32,8 C 23,9 C 52 % 1011,6 hPa 0,0 l/m 2 min 0 min 444 W/m 4,5 km/h (1 Bft) 95,74 %
20.07.2018 12:32 27,2 C 32,8 C 23,9 C 51 % 1011,6 hPa 0,0 l/m 2 min 0 min 618 W/m 4,5 km/h (1 Bft) 95,92 %
20.07.2018 12:34 27,2 C 32,2 C 24,4 C 49 % 1011,6 hPa 0,0 l/m 2 min 0 min 628 W/m 11,3 km/h (2 Bft) 95,65 %
20.07.2018 12:36 27,2 C 32,8 C 23,9 C 51 % 1011,6 hPa 0,0 l/m 2 min 0 min 716 W/m 6,8 km/h (2 Bft) 95,74 %
20.07.2018 12:38 27,3 C 33,9 C 23,9 C 52 % 1011,6 hPa 0,0 l/m 2 min 0 min 706 W/m 4,5 km/h (1 Bft) 95,74 %
20.07.2018 12:40 27,4 C 33,9 C 23,9 C 52 % 1011,6 hPa 0,0 l/m 2 min 0 min 672 W/m 4,5 km/h (1 Bft) 95,74 %
20.07.2018 12:42 27,4 C 33,9 C 23,9 C 53 % 1011,6 hPa 0,0 l/m 2 min 0 min 577 W/m 4,5 km/h (1 Bft) 95,74 %
20.07.2018 12:44 27,5 C 32,8 C 23,9 C 51 % 1011,6 hPa 0,0 l/m 2 min 0 min 502 W/m 9,0 km/h (2 Bft) 93,62 %
20.07.2018 12:46 27,5 C 32,2 C 23,9 C 49 % 1011,5 hPa 0,0 l/m 2 min 0 min 568 W/m 9,0 km/h (2 Bft) 95,65 %
20.07.2018 12:48 27,6 C 32,8 C 23,9 C 52 % 1011,6 hPa 0,0 l/m 2 min 0 min 615 W/m 4,5 km/h (1 Bft) 95,74 %
20.07.2018 12:50 27,6 C 33,3 C 23,9 C 50 % 1011,6 hPa 0,0 l/m 2 min 0 min 631 W/m 9,0 km/h (2 Bft) 95,74 %
20.07.2018 12:52 27,6 C 32,8 C 23,9 C 50 % 1011,6 hPa 0,0 l/m 2 min 0 min 635 W/m 11,3 km/h (2 Bft) 95,74 %
20.07.2018 12:54 27,6 C 33,3 C 23,9 C 50 % 1011,6 hPa 0,0 l/m 2 min 0 min 694 W/m 6,8 km/h (2 Bft) 95,74 %
20.07.2018 12:56 27,6 C 33,9 C 23,9 C 50 % 1011,6 hPa 0,0 l/m 2 min 0 min 719 W/m 6,8 km/h (2 Bft) 91,30 %
20.07.2018 12:58 27,6 C 33,9 C 23,9 C 50 % 1011,6 hPa 0,0 l/m 2 min 0 min 697 W/m 6,8 km/h (2 Bft) 95,74 %
20.07.2018 13:00 27,6 C 33,9 C 23,9 C 49 % 1011,5 hPa 0,0 l/m 2 min 0 min 664 W/m 4,5 km/h (1 Bft) 95,74 %
20.07.2018 13:02 27,6 C 33,3 C 23,9 C 50 % 1011,5 hPa 0,0 l/m 2 min 0 min 678 W/m 6,8 km/h (2 Bft) 91,49 %
20.07.2018 13:04 27,6 C 34,4 C 24,4 C 51 % 1011,5 hPa 0,0 l/m 2 min 0 min 756 W/m 6,8 km/h (2 Bft) 95,74 %
20.07.2018 13:06 27,7 C 34,4 C 23,9 C 50 % 1011,5 hPa 0,0 l/m 2 min 0 min 761 W/m 9,0 km/h (2 Bft) 93,62 %
20.07.2018 13:08 27,7 C 35,0 C 24,4 C 51 % 1011,5 hPa 0,0 l/m 2 min 0 min 760 W/m 6,8 km/h (2 Bft) 95,65 %
20.07.2018 13:10 27,7 C 33,9 C 24,4 C 50 % 1011,5 hPa 0,0 l/m 2 min 0 min 669 W/m 4,5 km/h (1 Bft) 95,74 %
20.07.2018 13:12 27,7 C 33,3 C 24,4 C 49 % 1011,5 hPa 0,0 l/m 2 min 0 min 748 W/m 4,5 km/h (1 Bft) 95,74 %
20.07.2018 13:14 27,7 C 34,4 C 24,4 C 50 % 1011,4 hPa 0,0 l/m 2 min 0 min 765 W/m 4,5 km/h (1 Bft) 95,74 %
20.07.2018 13:16 27,8 C 35,0 C 24,4 C 50 % 1011,4 hPa 0,0 l/m 2 min 0 min 819 W/m 6,8 km/h (2 Bft) 95,74 %
20.07.2018 13:18 27,8 C 34,4 C 25,0 C 50 % 1011,4 hPa 0,0 l/m 2 min 0 min 837 W/m 6,8 km/h (2 Bft) 95,74 %
20.07.2018 13:20 27,8 C 33,3 C 25,0 C 49 % 1011,3 hPa 0,0 l/m 2 min 0 min 834 W/m 4,5 km/h (1 Bft) 95,65 %
20.07.2018 13:22 27,9 C 34,4 C 25,0 C 49 % 1011,3 hPa 0,0 l/m 2 min 0 min 804 W/m 6,8 km/h (2 Bft) 95,83 %
20.07.2018 13:24 27,9 C 35,0 C 25,0 C 50 % 1011,3 hPa 0,0 l/m 2 min 0 min 806 W/m 9,0 km/h (2 Bft) 94,29 %
20.07.2018 13:26 28,0 C 35,0 C 24,4 C 51 % 1011,3 hPa 0,0 l/m 2 min 0 min 822 W/m 0,0 km/h (0 Bft) 95,74 %
20.07.2018 13:28 28,0 C 35,6 C 24,4 C 51 % 1011,2 hPa 0,0 l/m 2 min 0 min 830 W/m 4,5 km/h (1 Bft) 95,74 %
20.07.2018 13:30 28,1 C 34,4 C 25,0 C 48 % 1011,2 hPa 0,0 l/m 2 min 0 min 797 W/m 6,8 km/h (2 Bft) 97,87 %
20.07.2018 13:32 28,1 C 32,8 C 25,0 C 48 % 1011,2 hPa 0,0 l/m 2 min 0 min 784 W/m 9,0 km/h (2 Bft) 97,96 %
20.07.2018 13:34 28,2 C 33,3 C 25,0 C 48 % 1011,1 hPa 0,0 l/m 2 min 0 min 752 W/m 4,5 km/h (1 Bft) 95,65 %
20.07.2018 13:36 28,2 C 32,8 C 25,0 C 48 % 1011,2 hPa 0,0 l/m 2 min 0 min 777 W/m 6,8 km/h (2 Bft) 97,87 %
20.07.2018 13:38 28,2 C 31,7 C 25,6 C 50 % 1011,1 hPa 0,0 l/m 2 min 0 min 793 W/m 9,0 km/h (2 Bft) 97,87 %
20.07.2018 13:40 28,2 C 30,6 C 25,6 C 49 % 1011,2 hPa 0,0 l/m 2 min 0 min 814 W/m 6,8 km/h (2 Bft) 95,74 %
20.07.2018 13:42 28,3 C 30,0 C 25,6 C 51 % 1011,1 hPa 0,0 l/m 2 min 0 min 844 W/m 9,0 km/h (2 Bft) 97,87 %
20.07.2018 13:44 28,3 C 29,4 C 25,6 C 48 % 1011,0 hPa 0,0 l/m 2 min 0 min 856 W/m 9,0 km/h (2 Bft) 95,74 %
20.07.2018 13:46 28,3 C 28,9 C 25,6 C 49 % 1011,1 hPa 0,0 l/m 2 min 0 min 871 W/m 9,0 km/h (2 Bft) 97,83 %
20.07.2018 13:48 28,3 C 28,9 C 25,6 C 49 % 1011,0 hPa 0,0 l/m 2 min 0 min 808 W/m 6,8 km/h (2 Bft) 97,87 %
20.07.2018 13:50 28,3 C 28,3 C 25,0 C 50 % 1011,0 hPa 0,0 l/m 2 min 0 min 734 W/m 4,5 km/h (1 Bft) 95,74 %
20.07.2018 13:52 28,3 C 27,8 C 25,6 C 48 % 1010,9 hPa 0,0 l/m 2 min 0 min 722 W/m 2,3 km/h (1 Bft) 97,87 %
20.07.2018 13:54 28,3 C 27,8 C 25,0 C 48 % 1011,0 hPa 0,0 l/m 2 min 0 min 758 W/m 9,0 km/h (2 Bft) 93,62 %
20.07.2018 13:56 28,3 C 27,8 C 25,0 C 48 % 1010,9 hPa 0,0 l/m 2 min 0 min 755 W/m 6,8 km/h (2 Bft) 95,74 %
20.07.2018 13:58 28,3 C 27,8 C 25,0 C 48 % 1010,9 hPa 0,0 l/m 2 min 0 min 724 W/m 9,0 km/h (2 Bft) 97,83 %
20.07.2018 14:00 28,3 C 27,8 C 25,6 C 49 % 1010,9 hPa 0,0 l/m 2 min 0 min 687 W/m 4,5 km/h (1 Bft) 97,87 %
20.07.2018 14:02 28,3 C 27,8 C 25,6 C 48 % 1010,9 hPa 0,0 l/m 2 min 0 min 784 W/m 6,8 km/h (2 Bft) 95,74 %
20.07.2018 14:04 28,2 C 27,8 C 25,6 C 47 % 1010,8 hPa 0,0 l/m 2 min 0 min 847 W/m 9,0 km/h (2 Bft) 97,87 %
20.07.2018 14:06 28,2 C 28,3 C 25,6 C 49 % 1010,8 hPa 0,0 l/m 2 min 0 min 834 W/m 4,5 km/h (1 Bft) 97,92 %
20.07.2018 14:08 28,2 C 28,9 C 25,6 C 49 % 1010,8 hPa 0,0 l/m 2 min 0 min 852 W/m 6,8 km/h (2 Bft) 95,74 %
20.07.2018 14:10 28,2 C 28,3 C 25,6 C 49 % 1010,7 hPa 0,0 l/m 2 min 0 min 865 W/m 11,3 km/h (2 Bft) 97,83 %
20.07.2018 14:12 28,2 C 28,9 C 25,6 C 50 % 1010,7 hPa 0,0 l/m 2 min 0 min 844 W/m 4,5 km/h (1 Bft) 97,87 %
20.07.2018 14:14 28,2 C 28,3 C 26,1 C 48 % 1010,7 hPa 0,0 l/m 2 min 0 min 816 W/m 11,3 km/h (2 Bft) 100,00 %
20.07.2018 14:16 28,2 C 28,9 C 26,1 C 48 % 1010,7 hPa 0,0 l/m 2 min 0 min 809 W/m 6,8 km/h (2 Bft) 100,00 %
20.07.2018 14:18 28,2 C 28,9 C 26,1 C 50 % 1010,6 hPa 0,0 l/m 2 min 0 min 837 W/m 9,0 km/h (2 Bft) 100,00 %
20.07.2018 14:20 28,2 C 29,4 C 26,1 C 48 % 1010,6 hPa 0,0 l/m 2 min 0 min 743 W/m 4,5 km/h (1 Bft) 100,00 %
20.07.2018 14:22 28,3 C 29,4 C 26,1 C 49 % 1010,6 hPa 0,0 l/m 2 min 0 min 811 W/m 6,8 km/h (2 Bft) 100,00 %
20.07.2018 14:24 28,3 C 28,9 C 26,1 C 49 % 1010,6 hPa 0,0 l/m 2 min 0 min 808 W/m 6,8 km/h (2 Bft) 100,00 %
20.07.2018 14:26 28,3 C 28,9 C 25,6 C 48 % 1010,6 hPa 0,0 l/m 2 min 0 min 719 W/m 11,3 km/h (2 Bft) 100,00 %
20.07.2018 14:28 28,3 C 28,3 C 25,6 C 47 % 1010,6 hPa 0,0 l/m 2 min 0 min 736 W/m 18,0 km/h (3 Bft) 100,00 %
20.07.2018 14:30 28,2 C 28,3 C 25,6 C 48 % 1010,6 hPa 0,0 l/m 2 min 0 min 747 W/m 9,0 km/h (2 Bft) 97,87 %
20.07.2018 14:32 28,2 C 27,8 C 25,0 C 49 % 1010,6 hPa 0,0 l/m 2 min 0 min 623 W/m 11,3 km/h (2 Bft) 100,00 %
20.07.2018 14:34 28,2 C 27,8 C 25,0 C 48 % 1010,6 hPa 0,0 l/m 2 min 0 min 526 W/m 6,8 km/h (2 Bft) 97,83 %
20.07.2018 14:36 28,2 C 27,8 C 25,0 C 49 % 1010,5 hPa 0,0 l/m 2 min 0 min 484 W/m 6,8 km/h (2 Bft) 100,00 %
20.07.2018 14:38 28,2 C 27,8 C 25,0 C 49 % 1010,6 hPa 0,0 l/m 2 min 0 min 469 W/m 9,0 km/h (2 Bft) 100,00 %
20.07.2018 14:40 28,1 C 27,2 C 25,0 C 46 % 1010,5 hPa 0,0 l/m 2 min 0 min 510 W/m 4,5 km/h (1 Bft) 100,00 %
20.07.2018 14:42 28,1 C 27,2 C 25,0 C 48 % 1010,6 hPa 0,0 l/m 2 min 0 min 460 W/m 6,8 km/h (2 Bft) 100,00 %
20.07.2018 14:44 28,0 C 27,2 C 25,0 C 49 % 1010,5 hPa 0,0 l/m 2 min 0 min 552 W/m 6,8 km/h (2 Bft) 100,00 %
20.07.2018 14:46 27,9 C 27,8 C 25,6 C 48 % 1010,5 hPa 0,0 l/m 2 min 0 min 868 W/m 6,8 km/h (2 Bft) 100,00 %
20.07.2018 14:48 27,9 C 28,3 C 25,6 C 47 % 1010,5 hPa 0,0 l/m 2 min 0 min 882 W/m 6,8 km/h (2 Bft) 100,00 %
20.07.2018 14:50 27,9 C 28,3 C 25,6 C 49 % 1010,5 hPa 0,0 l/m 2 min 0 min 889 W/m 9,0 km/h (2 Bft) 97,87 %
20.07.2018 14:52 27,9 C 28,9 C 25,6 C 49 % 1010,5 hPa 0,0 l/m 2 min 0 min 883 W/m 9,0 km/h (2 Bft) 93,62 %
20.07.2018 14:54 27,9 C 28,9 C 26,1 C 48 % 1010,5 hPa 0,0 l/m 2 min 0 min 875 W/m 13,5 km/h (3 Bft) 97,87 %
20.07.2018 14:56 27,9 C 28,9 C 26,1 C 50 % 1010,5 hPa 0,0 l/m 2 min 0 min 864 W/m 6,8 km/h (2 Bft) 97,83 %
20.07.2018 14:58 27,9 C 28,9 C 25,6 C 49 % 1010,4 hPa 0,0 l/m 2 min 0 min 842 W/m 4,5 km/h (1 Bft) 97,87 %
20.07.2018 15:00 27,9 C 28,9 C 26,1 C 48 % 1010,4 hPa 0,0 l/m 2 min 0 min 856 W/m 6,8 km/h (2 Bft) 97,87 %
20.07.2018 15:02 28,0 C 29,4 C 26,1 C 49 % 1010,3 hPa 0,0 l/m 2 min 0 min 864 W/m 9,0 km/h (2 Bft) 96,36 %
20.07.2018 15:04 28,1 C 28,9 C 26,1 C 47 % 1010,3 hPa 0,0 l/m 2 min 0 min 862 W/m 11,3 km/h (2 Bft) 95,74 %
20.07.2018 15:06 28,1 C 28,9 C 26,7 C 47 % 1010,4 hPa 0,0 l/m 2 min 0 min 856 W/m 9,0 km/h (2 Bft) 97,37 %
20.07.2018 15:08 28,2 C 28,9 C 26,7 C 48 % 1010,4 hPa 0,0 l/m 2 min 0 min 843 W/m 6,8 km/h (2 Bft) 97,83 %
20.07.2018 15:10 28,2 C 28,3 C 26,1 C 46 % 1010,4 hPa 0,0 l/m 2 min 0 min 845 W/m 6,8 km/h (2 Bft) 97,87 %
20.07.2018 15:12 28,2 C 28,3 C 26,1 C 46 % 1010,4 hPa 0,0 l/m 2 min 0 min 840 W/m 4,5 km/h (1 Bft) 97,87 %
20.07.2018 15:14 28,3 C 28,3 C 26,1 C 46 % 1010,4 hPa 0,0 l/m 2 min 0 min 838 W/m 4,5 km/h (1 Bft) 95,74 %
20.07.2018 15:16 28,3 C 28,9 C 26,1 C 48 % 1010,2 hPa 0,0 l/m 2 min 0 min 837 W/m 9,0 km/h (2 Bft) 97,87 %
20.07.2018 15:18 28,3 C 28,9 C 26,1 C 48 % 1010,2 hPa 0,0 l/m 2 min 0 min 843 W/m 4,5 km/h (1 Bft) 95,74 %
20.07.2018 15:20 28,3 C 28,9 C 26,1 C 46 % 1010,3 hPa 0,0 l/m 2 min 0 min 832 W/m 11,3 km/h (2 Bft) 97,83 %
20.07.2018 15:22 28,4 C 29,4 C 26,7 C 46 % 1010,2 hPa 0,0 l/m 2 min 0 min 826 W/m 11,3 km/h (2 Bft) 97,87 %
20.07.2018 15:24 28,5 C 29,4 C 26,7 C 45 % 1010,2 hPa 0,0 l/m 2 min 0 min 829 W/m 11,3 km/h (2 Bft) 95,74 %
20.07.2018 15:26 28,6 C 29,4 C 26,7 C 47 % 1010,2 hPa 0,0 l/m 2 min 0 min 824 W/m 9,0 km/h (2 Bft) 97,87 %
20.07.2018 15:28 28,6 C 29,4 C 26,7 C 45 % 1010,3 hPa 0,0 l/m 2 min 0 min 806 W/m 6,8 km/h (2 Bft) 97,87 %
20.07.2018 15:30 28,7 C 28,9 C 26,7 C 47 % 1010,2 hPa 0,0 l/m 2 min 0 min 808 W/m 4,5 km/h (1 Bft) 97,87 %
20.07.2018 15:32 28,7 C 28,9 C 26,7 C 46 % 1010,2 hPa 0,0 l/m 2 min 0 min 811 W/m 4,5 km/h (1 Bft) 95,65 %
20.07.2018 15:34 28,7 C 29,4 C 26,7 C 46 % 1010,1 hPa 0,0 l/m 2 min 0 min 812 W/m 6,8 km/h (2 Bft) 100,00 %
20.07.2018 15:36 28,8 C 29,4 C 26,1 C 44 % 1010,1 hPa 0,0 l/m 2 min 0 min 799 W/m 6,8 km/h (2 Bft) 97,87 %
20.07.2018 15:38 28,8 C 29,4 C 26,7 C 45 % 1010,1 hPa 0,0 l/m 2 min 0 min 795 W/m 6,8 km/h (2 Bft) 100,00 %
20.07.2018 15:40 28,8 C 28,9 C 26,7 C 42 % 1010,0 hPa 0,0 l/m 2 min 0 min 796 W/m 9,0 km/h (2 Bft) 100,00 %
20.07.2018 15:42 28,8 C 29,4 C 26,7 C 45 % 1010,0 hPa 0,0 l/m 2 min 0 min 784 W/m 6,8 km/h (2 Bft) 100,00 %
20.07.2018 15:44 28,9 C 30,0 C 26,7 C 44 % 1010,0 hPa 0,0 l/m 2 min 0 min 794 W/m 11,3 km/h (2 Bft) 97,83 %
20.07.2018 15:46 28,9 C 30,0 C 26,7 C 45 % 1010,0 hPa 0,0 l/m 2 min 0 min 763 W/m 9,0 km/h (2 Bft) 100,00 %
20.07.2018 15:48 29,0 C 30,0 C 26,7 C 44 % 1010,0 hPa 0,0 l/m 2 min 0 min 750 W/m 18,0 km/h (3 Bft) 100,00 %
20.07.2018 15:50 29,0 C 29,4 C 26,1 C 44 % 1010,0 hPa 0,0 l/m 2 min 0 min 767 W/m 9,0 km/h (2 Bft) 100,00 %
20.07.2018 15:52 29,0 C 30,0 C 26,1 C 44 % 1009,9 hPa 0,0 l/m 2 min 0 min 776 W/m 11,3 km/h (2 Bft) 95,83 %
20.07.2018 15:54 29,0 C 31,1 C 26,1 C 43 % 1010,0 hPa 0,0 l/m 2 min 0 min 745 W/m 6,8 km/h (2 Bft) 95,74 %
20.07.2018 15:56 29,0 C 32,2 C 26,7 C 43 % 1010,0 hPa 0,0 l/m 2 min 0 min 751 W/m 9,0 km/h (2 Bft) 97,83 %
20.07.2018 15:58 29,1 C 32,8 C 26,7 C 45 % 1010,0 hPa 0,0 l/m 2 min 0 min 764 W/m 11,3 km/h (2 Bft) 97,87 %
20.07.2018 16:00 29,1 C 33,9 C 26,7 C 45 % 1010,0 hPa 0,0 l/m 2 min 0 min 768 W/m 6,8 km/h (2 Bft) 97,87 %
20.07.2018 16:02 29,1 C 33,9 C 26,7 C 44 % 1010,0 hPa 0,0 l/m 2 min 0 min 764 W/m 9,0 km/h (2 Bft) 95,74 %
20.07.2018 16:04 29,1 C 33,9 C 26,1 C 44 % 1009,9 hPa 0,0 l/m 2 min 0 min 761 W/m 9,0 km/h (2 Bft) 97,87 %
20.07.2018 16:06 29,2 C 34,4 C 26,1 C 44 % 1009,8 hPa 0,0 l/m 2 min 0 min 752 W/m 4,5 km/h (1 Bft) 98,11 %
20.07.2018 16:08 29,2 C 34,4 C 26,7 C 45 % 1009,9 hPa 0,0 l/m 2 min 0 min 753 W/m 6,8 km/h (2 Bft) 97,87 %
20.07.2018 16:10 29,2 C 32,8 C 26,7 C 42 % 1009,9 hPa 0,0 l/m 2 min 0 min 728 W/m 9,0 km/h (2 Bft) 97,87 %
20.07.2018 16:12 29,2 C 32,8 C 26,7 C 43 % 1009,8 hPa 0,0 l/m 2 min 0 min 769 W/m 6,8 km/h (2 Bft) 97,87 %
20.07.2018 16:14 29,3 C 32,8 C 27,2 C 42 % 1009,8 hPa 0,0 l/m 2 min 0 min 773 W/m 6,8 km/h (2 Bft) 97,87 %
20.07.2018 16:16 29,3 C 33,3 C 27,2 C 41 % 1009,9 hPa 0,0 l/m 2 min 0 min 768 W/m 9,0 km/h (2 Bft) 97,83 %
20.07.2018 16:18 29,3 C 33,9 C 26,7 C 42 % 1009,8 hPa 0,0 l/m 2 min 0 min 772 W/m 11,3 km/h (2 Bft) 97,87 %
20.07.2018 16:20 29,4 C 33,9 C 26,7 C 43 % 1009,8 hPa 0,0 l/m 2 min 0 min 776 W/m 9,0 km/h (2 Bft) 95,74 %
20.07.2018 16:22 29,4 C 33,3 C 26,7 C 41 % 1009,7 hPa 0,0 l/m 2 min 0 min 747 W/m 4,5 km/h (1 Bft) 95,74 %
20.07.2018 16:24 29,4 C 32,8 C 26,7 C 41 % 1009,7 hPa 0,0 l/m 2 min 0 min 691 W/m 4,5 km/h (1 Bft) 97,87 %
20.07.2018 16:26 29,4 C 32,2 C 26,1 C 41 % 1009,7 hPa 0,0 l/m 2 min 0 min 680 W/m 4,5 km/h (1 Bft) 95,74 %
20.07.2018 16:28 29,4 C 32,8 C 26,7 C 43 % 1009,7 hPa 0,0 l/m 2 min 0 min 672 W/m 6,8 km/h (2 Bft) 97,83 %
20.07.2018 16:30 29,4 C 32,2 C 26,7 C 41 % 1009,7 hPa 0,0 l/m 2 min 0 min 735 W/m 15,8 km/h (3 Bft) 93,62 %
20.07.2018 16:32 29,3 C 31,7 C 26,7 C 40 % 1009,6 hPa 0,0 l/m 2 min 0 min 745 W/m 6,8 km/h (2 Bft) 97,87 %
20.07.2018 16:34 29,3 C 32,2 C 26,7 C 41 % 1009,6 hPa 0,0 l/m 2 min 0 min 742 W/m 6,8 km/h (2 Bft) 97,87 %
20.07.2018 16:36 29,3 C 32,8 C 26,7 C 40 % 1009,5 hPa 0,0 l/m 2 min 0 min 737 W/m 13,5 km/h (3 Bft) 95,74 %
20.07.2018 16:38 29,3 C 32,8 C 26,7 C 41 % 1009,5 hPa 0,0 l/m 2 min 0 min 726 W/m 11,3 km/h (2 Bft) 97,92 %
20.07.2018 16:40 29,3 C 32,8 C 26,7 C 41 % 1009,5 hPa 0,0 l/m 2 min 0 min 722 W/m 11,3 km/h (2 Bft) 93,48 %
20.07.2018 16:42 29,3 C 32,2 C 26,7 C 41 % 1009,5 hPa 0,0 l/m 2 min 0 min 715 W/m 9,0 km/h (2 Bft) 95,74 %
20.07.2018 16:44 29,3 C 32,8 C 27,2 C 41 % 1009,5 hPa 0,0 l/m 2 min 0 min 708 W/m 13,5 km/h (3 Bft) 95,74 %
20.07.2018 16:46 29,3 C 32,8 C 26,7 C 42 % 1009,5 hPa 0,0 l/m 2 min 0 min 710 W/m 11,3 km/h (2 Bft) 95,74 %
20.07.2018 16:48 29,3 C 32,8 C 27,2 C 41 % 1009,5 hPa 0,0 l/m 2 min 0 min 702 W/m 13,5 km/h (3 Bft) 95,74 %
20.07.2018 16:50 29,3 C 32,8 C 27,2 C 42 % 1009,4 hPa 0,0 l/m 2 min 0 min 703 W/m 9,0 km/h (2 Bft) 95,74 %
20.07.2018 16:52 29,3 C 32,8 C 27,2 C 43 % 1009,4 hPa 0,0 l/m 2 min 0 min 701 W/m 9,0 km/h (2 Bft) 95,65 %
20.07.2018 16:54 29,4 C 33,3 C 27,2 C 42 % 1009,4 hPa 0,0 l/m 2 min 0 min 702 W/m 6,8 km/h (2 Bft) 95,74 %
20.07.2018 16:56 29,4 C 32,8 C 27,2 C 40 % 1009,4 hPa 0,0 l/m 2 min 0 min 694 W/m 11,3 km/h (2 Bft) 95,74 %
20.07.2018 16:58 29,4 C 32,8 C 27,2 C 41 % 1009,3 hPa 0,0 l/m 2 min 0 min 692 W/m 9,0 km/h (2 Bft) 95,74 %
20.07.2018 17:00 29,4 C 32,8 C 27,2 C 41 % 1009,3 hPa 0,0 l/m 2 min 0 min 681 W/m 9,0 km/h (2 Bft) 93,62 %
20.07.2018 17:02 29,4 C 32,2 C 27,2 C 40 % 1009,3 hPa 0,0 l/m 2 min 0 min 634 W/m 9,0 km/h (2 Bft) 95,74 %
20.07.2018 17:04 29,4 C 31,1 C 27,2 C 39 % 1009,3 hPa 0,0 l/m 2 min 0 min 493 W/m 6,8 km/h (2 Bft) 95,65 %
20.07.2018 17:08 29,4 C 30,6 C 26,7 C 40 % 1009,3 hPa 0,0 l/m 4 min 0 min 550 W/m 13,5 km/h (3 Bft) 95,35 %
20.07.2018 17:10 29,4 C 30,6 C 26,7 C 39 % 1009,2 hPa 0,0 l/m 2 min 0 min 574 W/m 15,8 km/h (3 Bft) 95,74 %
20.07.2018 17:12 29,4 C 30,6 C 26,7 C 41 % 1009,2 hPa 0,0 l/m 2 min 0 min 600 W/m 4,5 km/h (1 Bft) 95,74 %
20.07.2018 17:14 29,4 C 31,1 C 26,7 C 40 % 1009,2 hPa 0,0 l/m 2 min 0 min 583 W/m 6,8 km/h (2 Bft) 95,74 %
20.07.2018 17:16 29,4 C 30,6 C 26,7 C 40 % 1009,2 hPa 0,0 l/m 2 min 0 min 564 W/m 6,8 km/h (2 Bft) 95,65 %
20.07.2018 17:18 29,3 C 30,6 C 26,7 C 40 % 1009,1 hPa 0,0 l/m 2 min 0 min 583 W/m 11,3 km/h (2 Bft) 95,74 %
20.07.2018 17:20 29,3 C 30,6 C 27,2 C 40 % 1009,1 hPa 0,0 l/m 2 min 0 min 585 W/m 9,0 km/h (2 Bft) 95,74 %
20.07.2018 17:22 29,3 C 30,6 C 27,2 C 40 % 1009,1 hPa 0,0 l/m 2 min 0 min 570 W/m 9,0 km/h (2 Bft) 97,87 %
20.07.2018 17:24 29,4 C 30,6 C 27,2 C 40 % 1009,1 hPa 0,0 l/m 2 min 0 min 550 W/m 13,5 km/h (3 Bft) 100,00 %
20.07.2018 17:26 29,4 C 30,0 C 27,2 C 40 % 1009,1 hPa 0,0 l/m 2 min 0 min 526 W/m 13,5 km/h (3 Bft) 97,87 %
20.07.2018 17:28 29,3 C 30,0 C 27,2 C 39 % 1009,2 hPa 0,0 l/m 2 min 0 min 512 W/m 11,3 km/h (2 Bft) 100,00 %
20.07.2018 17:30 29,3 C 29,4 C 26,7 C 40 % 1009,1 hPa 0,0 l/m 2 min 0 min 539 W/m 9,0 km/h (2 Bft) 100,00 %
20.07.2018 17:32 29,4 C 30,0 C 27,2 C 42 % 1009,1 hPa 0,0 l/m 2 min 0 min 574 W/m 4,5 km/h (1 Bft) 100,00 %
20.07.2018 17:34 29,4 C 30,0 C 27,2 C 41 % 1009,1 hPa 0,0 l/m 2 min 0 min 591 W/m 4,5 km/h (1 Bft) 100,00 %
20.07.2018 17:36 29,4 C 30,0 C 27,2 C 41 % 1009,1 hPa 0,0 l/m 2 min 0 min 592 W/m 6,8 km/h (2 Bft) 97,87 %
20.07.2018 17:38 29,4 C 30,0 C 27,2 C 39 % 1009,1 hPa 0,0 l/m 2 min 0 min 597 W/m 9,0 km/h (2 Bft) 100,00 %
20.07.2018 17:40 29,4 C 30,0 C 27,2 C 40 % 1009,1 hPa 0,0 l/m 2 min 0 min 595 W/m 13,5 km/h (3 Bft) 97,83 %
20.07.2018 17:42 29,4 C 29,4 C 27,2 C 39 % 1009,0 hPa 0,0 l/m 2 min 0 min 590 W/m 4,5 km/h (1 Bft) 100,00 %
20.07.2018 17:44 29,4 C 30,0 C 26,7 C 40 % 1009,0 hPa 0,0 l/m 2 min 0 min 586 W/m 4,5 km/h (1 Bft) 100,00 %
20.07.2018 17:46 29,4 C 30,0 C 27,2 C 42 % 1008,9 hPa 0,0 l/m 2 min 0 min 584 W/m 6,8 km/h (2 Bft) 97,87 %
20.07.2018 17:48 29,4 C 30,0 C 27,2 C 41 % 1008,9 hPa 0,0 l/m 2 min 0 min 572 W/m 11,3 km/h (2 Bft) 100,00 %
20.07.2018 17:50 29,4 C 30,0 C 27,2 C 40 % 1008,9 hPa 0,0 l/m 2 min 0 min 548 W/m 6,8 km/h (2 Bft) 100,00 %
20.07.2018 17:52 29,4 C 30,0 C 27,8 C 40 % 1009,0 hPa 0,0 l/m 2 min 0 min 569 W/m 11,3 km/h (2 Bft) 100,00 %
20.07.2018 17:54 29,4 C 30,0 C 27,2 C 40 % 1008,9 hPa 0,0 l/m 2 min 0 min 562 W/m 9,0 km/h (2 Bft) 100,00 %
20.07.2018 17:56 29,4 C 30,0 C 27,8 C 39 % 1008,9 hPa 0,0 l/m 2 min 0 min 537 W/m 9,0 km/h (2 Bft) 100,00 %
20.07.2018 17:58 29,5 C 30,0 C 27,2 C 39 % 1009,0 hPa 0,0 l/m 2 min 0 min 391 W/m 11,3 km/h (2 Bft) 100,00 %
20.07.2018 18:00 29,5 C 29,4 C 27,2 C 39 % 1009,0 hPa 0,0 l/m 0 min 0 min 247 W/m 11,3 km/h (2 Bft) 95,74 %
20.07.2018 18:02 29,5 C 28,9 C 27,2 C 39 % 1009,0 hPa 0,0 l/m 2 min 0 min 311 W/m 2,3 km/h (1 Bft) 95,74 %
20.07.2018 18:04 29,5 C 28,9 C 27,2 C 39 % 1009,0 hPa 0,0 l/m 2 min 0 min 400 W/m 6,8 km/h (2 Bft) 97,83 %
20.07.2018 18:08 29,5 C 28,9 C 26,7 C 40 % 1008,9 hPa 0,0 l/m 4 min 0 min 394 W/m 4,5 km/h (1 Bft) 98,00 %
20.07.2018 18:10 29,4 C 28,9 C 26,7 C 41 % 1009,0 hPa 0,0 l/m 2 min 0 min 327 W/m 4,5 km/h (1 Bft) 95,74 %
20.07.2018 18:12 29,4 C 29,4 C 27,2 C 40 % 1009,0 hPa 0,0 l/m 2 min 0 min 472 W/m 6,8 km/h (2 Bft) 97,56 %
20.07.2018 18:14 29,4 C 29,4 C 27,2 C 40 % 1009,0 hPa 0,0 l/m 2 min 0 min 502 W/m 11,3 km/h (2 Bft) 97,87 %
20.07.2018 18:16 29,4 C 28,9 C 26,7 C 40 % 1009,0 hPa 0,0 l/m 2 min 0 min 445 W/m 4,5 km/h (1 Bft) 96,15 %
20.07.2018 18:18 29,3 C 28,3 C 26,7 C 40 % 1009,0 hPa 0,0 l/m 0 min 0 min 183 W/m 9,0 km/h (2 Bft) 97,87 %
20.07.2018 18:20 29,2 C 28,3 C 26,7 C 39 % 1009,0 hPa 0,0 l/m 0 min 0 min 141 W/m 9,0 km/h (2 Bft) 97,87 %
20.07.2018 18:22 29,2 C 27,8 C 26,1 C 41 % 1008,9 hPa 0,0 l/m 0 min 0 min 137 W/m 4,5 km/h (1 Bft) 95,74 %
20.07.2018 18:24 29,1 C 27,8 C 26,1 C 40 % 1009,0 hPa 0,0 l/m 0 min 0 min 135 W/m 9,0 km/h (2 Bft) 97,87 %
20.07.2018 18:26 29,1 C 27,8 C 26,1 C 40 % 1009,0 hPa 0,0 l/m 0 min 0 min 133 W/m 9,0 km/h (2 Bft) 97,83 %
20.07.2018 18:28 29,0 C 27,8 C 26,1 C 40 % 1008,9 hPa 0,0 l/m 0 min 0 min 134 W/m 4,5 km/h (1 Bft) 97,87 %
20.07.2018 18:30 28,9 C 27,8 C 26,1 C 41 % 1009,0 hPa 0,0 l/m 0 min 0 min 136 W/m 6,8 km/h (2 Bft) 97,87 %
20.07.2018 18:32 28,8 C 27,2 C 25,6 C 41 % 1008,9 hPa 0,0 l/m 0 min 0 min 137 W/m 4,5 km/h (1 Bft) 95,74 %
20.07.2018 18:34 28,7 C 27,2 C 25,6 C 40 % 1008,9 hPa 0,0 l/m 0 min 0 min 137 W/m 9,0 km/h (2 Bft) 97,87 %
20.07.2018 18:36 28,6 C 27,2 C 25,6 C 41 % 1008,9 hPa 0,0 l/m 0 min 0 min 135 W/m 9,0 km/h (2 Bft) 95,74 %
20.07.2018 18:38 28,5 C 27,2 C 25,6 C 41 % 1009,0 hPa 0,0 l/m 0 min 0 min 134 W/m 11,3 km/h (2 Bft) 95,65 %
20.07.2018 18:40 28,4 C 27,2 C 25,6 C 41 % 1009,0 hPa 0,0 l/m 0 min 0 min 132 W/m 9,0 km/h (2 Bft) 97,87 %
20.07.2018 18:42 28,3 C 27,2 C 25,6 C 42 % 1008,9 hPa 0,0 l/m 0 min 0 min 131 W/m 6,8 km/h (2 Bft) 97,87 %
20.07.2018 18:44 28,3 C 27,2 C 25,6 C 42 % 1008,9 hPa 0,0 l/m 0 min 0 min 130 W/m 6,8 km/h (2 Bft) 97,87 %
20.07.2018 18:46 28,2 C 27,2 C 25,6 C 42 % 1008,9 hPa 0,0 l/m 0 min 0 min 128 W/m 11,3 km/h (2 Bft) 95,74 %
20.07.2018 18:48 28,1 C 26,7 C 25,6 C 43 % 1008,9 hPa 0,0 l/m 0 min 0 min 128 W/m 6,8 km/h (2 Bft) 100,00 %
20.07.2018 18:50 28,0 C 26,7 C 25,6 C 42 % 1008,9 hPa 0,0 l/m 0 min 0 min 127 W/m 11,3 km/h (2 Bft) 100,00 %
20.07.2018 18:52 27,9 C 26,7 C 25,6 C 43 % 1008,9 hPa 0,0 l/m 0 min 0 min 126 W/m 11,3 km/h (2 Bft) 97,87 %
20.07.2018 18:54 27,9 C 26,7 C 25,6 C 43 % 1008,9 hPa 0,0 l/m 0 min 0 min 126 W/m 9,0 km/h (2 Bft) 100,00 %
20.07.2018 18:56 27,8 C 26,7 C 25,6 C 42 % 1008,9 hPa 0,0 l/m 0 min 0 min 125 W/m 13,5 km/h (3 Bft) 100,00 %
20.07.2018 18:58 27,8 C 26,7 C 25,6 C 43 % 1008,8 hPa 0,0 l/m 0 min 0 min 121 W/m 6,8 km/h (2 Bft) 97,87 %
20.07.2018 19:00 27,7 C 26,7 C 24,4 C 43 % 1008,8 hPa 0,0 l/m 0 min 0 min 118 W/m 9,0 km/h (2 Bft) 95,74 %
20.07.2018 19:02 27,6 C 25,6 C 23,3 C 45 % 1008,8 hPa 0,0 l/m 0 min 0 min 118 W/m 9,0 km/h (2 Bft) 95,00 %
20.07.2018 19:04 27,6 C 25,0 C 21,1 C 45 % 1008,8 hPa 0,0 l/m 0 min 0 min 121 W/m 6,8 km/h (2 Bft) 100,00 %
20.07.2018 19:06 27,4 C 21,7 C 20,0 C 47 % 1008,8 hPa 0,0 l/m 0 min 0 min 120 W/m 9,0 km/h (2 Bft) 100,00 %
20.07.2018 19:08 27,3 C 20,0 C 18,9 C 48 % 1008,7 hPa 0,0 l/m 0 min 0 min 116 W/m 4,5 km/h (1 Bft) 100,00 %
20.07.2018 19:10 27,3 C 19,4 C 17,2 C 46 % 1008,7 hPa 0,0 l/m 0 min 0 min 112 W/m 9,0 km/h (2 Bft) 100,00 %
20.07.2018 19:12 27,2 C 18,9 C 17,2 C 48 % 1008,7 hPa 0,0 l/m 0 min 0 min 110 W/m 6,8 km/h (2 Bft) 97,87 %
20.07.2018 19:14 27,1 C 18,9 C 17,2 C 47 % 1008,7 hPa 0,0 l/m 0 min 0 min 112 W/m 9,0 km/h (2 Bft) 100,00 %
20.07.2018 19:16 26,9 C 18,9 C 17,8 C 47 % 1008,7 hPa 0,0 l/m 0 min 0 min 118 W/m 13,5 km/h (3 Bft) 100,00 %
20.07.2018 19:18 26,8 C 18,9 C 17,8 C 47 % 1008,7 hPa 0,0 l/m 0 min 0 min 127 W/m 9,0 km/h (2 Bft) 100,00 %
20.07.2018 19:20 26,7 C 18,9 C 17,8 C 48 % 1008,7 hPa 0,0 l/m 0 min 0 min 140 W/m 13,5 km/h (3 Bft) 96,61 %
20.07.2018 19:22 26,6 C 18,9 C 17,8 C 49 % 1008,7 hPa 0,0 l/m 2 min 0 min 178 W/m 9,0 km/h (2 Bft) 97,87 %
20.07.2018 19:24 26,4 C 18,9 C 17,8 C 49 % 1008,7 hPa 0,0 l/m 2 min 0 min 158 W/m 9,0 km/h (2 Bft) 97,14 %
20.07.2018 19:26 26,3 C 19,4 C 18,3 C 49 % 1008,7 hPa 0,0 l/m 0 min 0 min 130 W/m 13,5 km/h (3 Bft) 97,83 %
20.07.2018 19:28 26,2 C 19,4 C 17,8 C 49 % 1008,7 hPa 0,0 l/m 0 min 0 min 126 W/m 11,3 km/h (2 Bft) 100,00 %
20.07.2018 19:30 26,1 C 20,0 C 18,3 C 50 % 1008,7 hPa 0,0 l/m 0 min 0 min 122 W/m 13,5 km/h (3 Bft) 100,00 %
20.07.2018 19:32 26,1 C 19,4 C 18,3 C 50 % 1008,8 hPa 0,0 l/m 0 min 0 min 120 W/m 11,3 km/h (2 Bft) 100,00 %
20.07.2018 19:34 26,0 C 19,4 C 18,3 C 50 % 1008,8 hPa 0,0 l/m 0 min 0 min 125 W/m 13,5 km/h (3 Bft) 97,87 %
20.07.2018 19:36 25,9 C 19,4 C 17,8 C 51 % 1008,7 hPa 0,0 l/m 0 min 0 min 120 W/m 15,8 km/h (3 Bft) 97,87 %
20.07.2018 19:38 25,8 C 19,4 C 17,8 C 50 % 1008,7 hPa 0,0 l/m 0 min 0 min 104 W/m 13,5 km/h (3 Bft) 97,87 %
20.07.2018 19:40 25,7 C 20,0 C 18,3 C 50 % 1008,8 hPa 0,0 l/m 0 min 0 min 102 W/m 11,3 km/h (2 Bft) 97,83 %
20.07.2018 19:42 25,7 C 20,6 C 18,3 C 51 % 1008,8 hPa 0,0 l/m 0 min 0 min 93 W/m 4,5 km/h (1 Bft) 97,87 %
20.07.2018 19:44 25,6 C 18,9 C 17,2 C 52 % 1008,8 hPa 0,0 l/m 0 min 0 min 87 W/m 15,8 km/h (3 Bft) 97,87 %
20.07.2018 19:46 25,6 C 18,3 C 17,2 C 51 % 1008,8 hPa 0,0 l/m 0 min 0 min 83 W/m 13,5 km/h (3 Bft) 95,65 %
20.07.2018 19:48 25,4 C 18,9 C 17,2 C 51 % 1008,8 hPa 0,0 l/m 0 min 0 min 78 W/m 15,8 km/h (3 Bft) 98,65 %
20.07.2018 19:50 25,4 C 18,9 C 17,2 C 53 % 1008,8 hPa 0,0 l/m 0 min 0 min 75 W/m 13,5 km/h (3 Bft) 97,83 %
20.07.2018 19:52 25,3 C 18,3 C 17,2 C 52 % 1008,8 hPa 0,0 l/m 0 min 0 min 70 W/m 11,3 km/h (2 Bft) 95,74 %
20.07.2018 19:54 25,3 C 18,3 C 16,7 C 52 % 1008,8 hPa 0,0 l/m 0 min 0 min 67 W/m 11,3 km/h (2 Bft) 97,87 %
20.07.2018 19:56 25,2 C 18,3 C 16,7 C 52 % 1008,8 hPa 0,0 l/m 0 min 0 min 64 W/m 11,3 km/h (2 Bft) 95,74 %
20.07.2018 19:58 25,1 C 17,8 C 17,2 C 53 % 1008,8 hPa 0,0 l/m 0 min 0 min 62 W/m 11,3 km/h (2 Bft) 97,87 %
20.07.2018 20:00 25,1 C 17,8 C 17,2 C 53 % 1008,7 hPa 0,0 l/m 0 min 0 min 60 W/m 11,3 km/h (2 Bft) 97,83 %
20.07.2018 20:02 25,1 C 17,8 C 17,2 C 53 % 1008,8 hPa 0,2 l/m 0 min 0 min 60 W/m 13,5 km/h (3 Bft) 97,87 %
20.07.2018 20:04 24,9 C 17,8 C 17,2 C 53 % 1008,7 hPa 0,0 l/m 0 min 0 min 59 W/m 11,3 km/h (2 Bft) 95,74 %
20.07.2018 20:06 24,9 C 18,3 C 17,2 C 53 % 1008,7 hPa 0,0 l/m 0 min 0 min 57 W/m 13,5 km/h (3 Bft) 98,18 %
20.07.2018 20:08 24,8 C 17,8 C 16,7 C 55 % 1008,7 hPa 0,0 l/m 0 min 0 min 55 W/m 11,3 km/h (2 Bft) 95,74 %
20.07.2018 20:10 24,7 C 17,8 C 16,7 C 55 % 1008,7 hPa 0,0 l/m 0 min 0 min 52 W/m 15,8 km/h (3 Bft) 95,65 %
20.07.2018 20:12 24,7 C 17,8 C 16,7 C 56 % 1008,7 hPa 0,0 l/m 0 min 0 min 50 W/m 9,0 km/h (2 Bft) 95,74 %
20.07.2018 20:14 24,6 C 17,8 C 16,7 C 56 % 1008,7 hPa 0,0 l/m 0 min 0 min 48 W/m 11,3 km/h (2 Bft) 95,74 %
20.07.2018 20:16 24,6 C 17,8 C 16,1 C 55 % 1008,7 hPa 0,0 l/m 0 min 0 min 47 W/m 15,8 km/h (3 Bft) 95,74 %
20.07.2018 20:18 24,5 C 17,8 C 16,7 C 54 % 1008,7 hPa 0,0 l/m 0 min 0 min 46 W/m 9,0 km/h (2 Bft) 93,62 %
20.07.2018 20:20 24,4 C 17,8 C 16,7 C 55 % 1008,7 hPa 0,0 l/m 0 min 0 min 46 W/m 18,0 km/h (3 Bft) 93,62 %
20.07.2018 20:22 24,4 C 17,2 C 16,7 C 56 % 1008,8 hPa 0,0 l/m 0 min 0 min 44 W/m 9,0 km/h (2 Bft) 95,74 %
20.07.2018 20:24 24,3 C 17,2 C 16,7 C 56 % 1008,7 hPa 0,0 l/m 0 min 0 min 44 W/m 11,3 km/h (2 Bft) 97,22 %
20.07.2018 20:26 24,3 C 17,2 C 16,7 C 55 % 1008,7 hPa 0,0 l/m 0 min 0 min 43 W/m 15,8 km/h (3 Bft) 91,30 %
20.07.2018 20:28 24,2 C 17,8 C 16,7 C 56 % 1008,6 hPa 0,0 l/m 0 min 0 min 41 W/m 15,8 km/h (3 Bft) 100,00 %
20.07.2018 20:30 24,2 C 17,8 C 16,7 C 55 % 1008,8 hPa 0,0 l/m 0 min 0 min 40 W/m 9,0 km/h (2 Bft) 97,87 %
20.07.2018 20:32 24,2 C 17,2 C 16,7 C 57 % 1008,8 hPa 0,0 l/m 0 min 0 min 39 W/m 11,3 km/h (2 Bft) 97,87 %
20.07.2018 20:34 24,1 C 17,2 C 16,7 C 56 % 1008,7 hPa 0,0 l/m 0 min 0 min 39 W/m 13,5 km/h (3 Bft) 97,87 %
20.07.2018 20:36 24,1 C 17,8 C 16,7 C 57 % 1008,7 hPa 0,0 l/m 0 min 0 min 39 W/m 11,3 km/h (2 Bft) 97,87 %
20.07.2018 20:38 24,0 C 17,8 C 16,7 C 56 % 1008,8 hPa 0,0 l/m 0 min 0 min 40 W/m 11,3 km/h (2 Bft) 95,65 %
20.07.2018 20:40 24,0 C 17,8 C 16,1 C 57 % 1008,8 hPa 0,0 l/m 0 min 0 min 39 W/m 9,0 km/h (2 Bft) 97,87 %
20.07.2018 20:42 23,9 C 17,8 C 16,1 C 58 % 1008,8 hPa 0,0 l/m 0 min 0 min 37 W/m 9,0 km/h (2 Bft) 97,87 %
20.07.2018 20:44 23,9 C 17,8 C 16,7 C 57 % 1008,9 hPa 0,0 l/m 0 min 0 min 33 W/m 13,5 km/h (3 Bft) 95,74 %
20.07.2018 20:46 23,9 C 17,2 C 17,2 C 58 % 1008,8 hPa 0,0 l/m 0 min 0 min 31 W/m 9,0 km/h (2 Bft) 95,65 %
20.07.2018 20:48 23,8 C 17,2 C 16,7 C 58 % 1008,9 hPa 0,0 l/m 0 min 0 min 28 W/m 9,0 km/h (2 Bft) 94,59 %
20.07.2018 20:50 23,8 C 17,2 C 16,7 C 58 % 1008,9 hPa 0,0 l/m 0 min 0 min 26 W/m 15,8 km/h (3 Bft) 95,65 %
20.07.2018 20:52 23,7 C 16,7 C 16,7 C 58 % 1008,9 hPa 0,0 l/m 0 min 0 min 24 W/m 15,8 km/h (3 Bft) 93,62 %
20.07.2018 20:54 23,6 C 16,7 C 16,7 C 57 % 1008,9 hPa 0,0 l/m 0 min 0 min 22 W/m 13,5 km/h (3 Bft) 95,74 %
20.07.2018 20:56 23,6 C 16,7 C 16,7 C 57 % 1008,9 hPa 0,0 l/m 0 min 0 min 20 W/m 13,5 km/h (3 Bft) 95,74 %
20.07.2018 20:58 23,5 C 16,7 C 16,7 C 57 % 1008,9 hPa 0,0 l/m 0 min 0 min 18 W/m 20,3 km/h (4 Bft) 95,74 %
20.07.2018 21:00 23,4 C 16,7 C 16,7 C 57 % 1008,9 hPa 0,0 l/m 0 min 0 min 16 W/m 13,5 km/h (3 Bft) 95,65 %
20.07.2018 21:02 23,4 C 16,7 C 16,7 C 57 % 1008,9 hPa 0,0 l/m 0 min 0 min 13 W/m 13,5 km/h (3 Bft) 95,74 %
20.07.2018 21:04 23,4 C 16,7 C 16,7 C 57 % 1008,8 hPa 0,0 l/m 0 min 0 min 12 W/m 15,8 km/h (3 Bft) 95,74 %
20.07.2018 21:06 23,3 C 16,7 C 16,7 C 57 % 1009,0 hPa 0,0 l/m 0 min 0 min 11 W/m 11,3 km/h (2 Bft) 95,74 %
20.07.2018 21:08 23,3 C 16,7 C 16,1 C 57 % 1008,9 hPa 0,0 l/m 0 min 0 min 9 W/m 9,0 km/h (2 Bft) 93,62 %
20.07.2018 21:10 23,3 C 16,1 C 15,6 C 58 % 1009,0 hPa 0,0 l/m 0 min 0 min 9 W/m 6,8 km/h (2 Bft) 95,65 %
20.07.2018 21:12 23,2 C 16,1 C 16,1 C 57 % 1009,0 hPa 0,2 l/m 0 min 0 min 7 W/m 15,8 km/h (3 Bft) 95,74 %
20.07.2018 21:14 23,2 C 16,1 C 16,1 C 58 % 1009,1 hPa 0,0 l/m 0 min 0 min 6 W/m 9,0 km/h (2 Bft) 97,87 %
20.07.2018 21:16 23,1 C 16,1 C 16,1 C 58 % 1009,0 hPa 0,0 l/m 0 min 0 min 5 W/m 9,0 km/h (2 Bft) 98,11 %
20.07.2018 21:18 23,1 C 16,7 C 16,1 C 58 % 1009,0 hPa 0,0 l/m 0 min 0 min 2 W/m 6,8 km/h (2 Bft) 97,87 %
20.07.2018 21:20 23,0 C 16,7 C 15,6 C 58 % 1009,0 hPa 0,0 l/m 0 min 0 min 0 W/m 13,5 km/h (3 Bft) 93,62 %
20.07.2018 21:22 23,0 C 16,7 C 15,6 C 58 % 1009,0 hPa 0,0 l/m 0 min 0 min 0 W/m 13,5 km/h (3 Bft) 97,83 %
20.07.2018 21:24 22,9 C 16,7 C 16,1 C 59 % 1009,0 hPa 0,0 l/m 0 min 0 min 0 W/m 6,8 km/h (2 Bft) 97,87 %
20.07.2018 21:26 22,9 C 16,1 C 16,1 C 58 % 1009,0 hPa 0,0 l/m 0 min 0 min 0 W/m 9,0 km/h (2 Bft) 95,74 %
20.07.2018 21:28 22,8 C 16,7 C 16,1 C 58 % 1009,0 hPa 0,0 l/m 0 min 2 min 0 W/m 18,0 km/h (3 Bft) 97,87 %
20.07.2018 21:30 22,8 C 16,7 C 16,1 C 58 % 1009,0 hPa 0,0 l/m 0 min 0 min 0 W/m 6,8 km/h (2 Bft) 95,74 %
20.07.2018 21:32 22,7 C 16,7 C 16,7 C 58 % 1009,0 hPa 0,0 l/m 0 min 0 min 0 W/m 13,5 km/h (3 Bft) 95,12 %
20.07.2018 21:34 22,7 C 16,7 C 16,7 C 57 % 1009,0 hPa 0,0 l/m 0 min 0 min 0 W/m 11,3 km/h (2 Bft) 97,83 %
20.07.2018 21:36 22,7 C 17,2 C 16,7 C 58 % 1009,0 hPa 0,0 l/m 0 min 0 min 0 W/m 9,0 km/h (2 Bft) 100,00 %
20.07.2018 21:38 22,7 C 17,2 C 17,2 C 58 % 1009,1 hPa 0,0 l/m 0 min 0 min 0 W/m 6,8 km/h (2 Bft) 100,00 %
20.07.2018 21:40 22,6 C 17,2 C 17,2 C 58 % 1009,1 hPa 0,0 l/m 0 min 0 min 0 W/m 9,0 km/h (2 Bft) 100,00 %
20.07.2018 21:42 22,6 C 17,2 C 17,2 C 59 % 1009,1 hPa 0,0 l/m 0 min 2 min 0 W/m 4,5 km/h (1 Bft) 97,87 %
20.07.2018 21:44 22,6 C 17,2 C 17,2 C 59 % 1009,2 hPa 0,0 l/m 0 min 0 min 0 W/m 6,8 km/h (2 Bft) 100,00 %
20.07.2018 21:46 22,6 C 17,2 C 17,2 C 59 % 1009,2 hPa 0,0 l/m 0 min 0 min 0 W/m 9,0 km/h (2 Bft) 97,87 %
20.07.2018 21:48 22,6 C 17,2 C 17,2 C 59 % 1009,2 hPa 0,0 l/m 0 min 0 min 0 W/m 9,0 km/h (2 Bft) 100,00 %
20.07.2018 21:50 22,5 C 17,2 C 17,2 C 59 % 1009,2 hPa 0,0 l/m 0 min 0 min 0 W/m 6,8 km/h (2 Bft) 100,00 %
20.07.2018 21:52 22,5 C 18,9 C 17,8 C 58 % 1009,2 hPa 0,0 l/m 0 min 0 min 0 W/m 11,3 km/h (2 Bft) 93,62 %
20.07.2018 21:54 22,4 C 19,4 C 17,8 C 58 % 1009,2 hPa 0,0 l/m 0 min 0 min 0 W/m 9,0 km/h (2 Bft) 97,87 %
20.07.2018 21:56 22,4 C 19,4 C 18,3 C 59 % 1009,3 hPa 0,0 l/m 0 min 0 min 0 W/m 6,8 km/h (2 Bft) 97,83 %
20.07.2018 21:58 22,4 C 20,0 C 18,3 C 59 % 1009,3 hPa 0,0 l/m 0 min 0 min 0 W/m 9,0 km/h (2 Bft) 100,00 %
20.07.2018 22:00 22,4 C 20,0 C 18,9 C 58 % 1009,3 hPa 0,0 l/m 0 min 0 min 0 W/m 6,8 km/h (2 Bft) 100,00 %
20.07.2018 22:02 22,3 C 20,0 C 18,9 C 58 % 1009,3 hPa 0,0 l/m 0 min 0 min 0 W/m 9,0 km/h (2 Bft) 95,74 %
20.07.2018 22:04 22,3 C 20,0 C 18,9 C 58 % 1009,3 hPa 0,0 l/m 0 min 0 min 0 W/m 6,8 km/h (2 Bft) 100,00 %
20.07.2018 22:06 22,3 C 20,0 C 18,9 C 58 % 1009,3 hPa 0,0 l/m 0 min 0 min 0 W/m 6,8 km/h (2 Bft) 100,00 %
20.07.2018 22:08 22,3 C 20,0 C 19,4 C 58 % 1009,3 hPa 0,0 l/m 0 min 0 min 0 W/m 4,5 km/h (1 Bft) 97,83 %
20.07.2018 22:10 22,3 C 20,6 C 19,4 C 58 % 1009,4 hPa 0,0 l/m 0 min 0 min 0 W/m 4,5 km/h (1 Bft) 97,87 %
20.07.2018 22:12 22,3 C 20,6 C 19,4 C 58 % 1009,3 hPa 0,0 l/m 0 min 0 min 0 W/m 6,8 km/h (2 Bft) 97,87 %
20.07.2018 22:14 22,3 C 20,6 C 19,4 C 58 % 1009,2 hPa 0,0 l/m 0 min 0 min 0 W/m 4,5 km/h (1 Bft) 97,87 %
20.07.2018 22:16 22,2 C 20,6 C 19,4 C 58 % 1009,2 hPa 0,0 l/m 0 min 0 min 0 W/m 2,3 km/h (1 Bft) 97,87 %
20.07.2018 22:18 22,2 C 20,6 C 19,4 C 58 % 1009,3 hPa 0,0 l/m 0 min 0 min 0 W/m 4,5 km/h (1 Bft) 97,87 %
20.07.2018 22:20 22,2 C 20,6 C 19,4 C 58 % 1009,2 hPa 0,0 l/m 0 min 0 min 0 W/m 6,8 km/h (2 Bft) 97,83 %
20.07.2018 22:22 22,2 C 20,6 C 20,0 C 58 % 1009,2 hPa 0,0 l/m 0 min 0 min 0 W/m 4,5 km/h (1 Bft) 97,87 %
20.07.2018 22:24 22,2 C 20,6 C 20,0 C 58 % 1009,2 hPa 0,0 l/m 0 min 0 min 0 W/m 9,0 km/h (2 Bft) 97,87 %
20.07.2018 22:26 22,2 C 20,6 C 20,0 C 58 % 1009,2 hPa 0,0 l/m 0 min 0 min 0 W/m 4,5 km/h (1 Bft) 97,87 %
20.07.2018 22:28 22,2 C 21,1 C 20,0 C 58 % 1009,2 hPa 0,0 l/m 0 min 0 min 0 W/m 2,3 km/h (1 Bft) 97,87 %
20.07.2018 22:30 22,2 C 21,1 C 20,6 C 58 % 1009,3 hPa 0,0 l/m 0 min 0 min 0 W/m 0,0 km/h (0 Bft) 97,87 %
20.07.2018 22:32 22,2 C 21,1 C 20,0 C 58 % 1009,2 hPa 0,0 l/m 0 min 0 min 0 W/m 4,5 km/h (1 Bft) 97,83 %
20.07.2018 22:34 22,2 C 20,6 C 20,0 C 58 % 1009,3 hPa 0,0 l/m 0 min 0 min 0 W/m 9,0 km/h (2 Bft) 95,74 %
20.07.2018 22:36 22,2 C 20,6 C 20,0 C 57 % 1009,2 hPa 0,0 l/m 0 min 0 min 0 W/m 6,8 km/h (2 Bft) 100,00 %
20.07.2018 22:38 22,2 C 20,6 C 20,0 C 58 % 1009,2 hPa 0,0 l/m 0 min 0 min 0 W/m 4,5 km/h (1 Bft) 97,87 %
20.07.2018 22:40 22,1 C 20,6 C 20,0 C 58 % 1009,3 hPa 0,0 l/m 0 min 0 min 0 W/m 2,3 km/h (1 Bft) 95,74 %
20.07.2018 22:42 22,1 C 20,6 C 20,0 C 58 % 1009,2 hPa 0,0 l/m 0 min 0 min 0 W/m 2,3 km/h (1 Bft) 97,87 %
20.07.2018 22:44 22,1 C 20,6 C 20,0 C 58 % 1009,3 hPa 0,0 l/m 0 min 0 min 0 W/m 0,0 km/h (0 Bft) 97,87 %
20.07.2018 22:46 22,1 C 20,6 C 20,0 C 58 % 1009,2 hPa 0,0 l/m 0 min 0 min 0 W/m 2,3 km/h (1 Bft) 97,83 %
20.07.2018 22:48 22,1 C 20,6 C 20,0 C 59 % 1009,2 hPa 0,0 l/m 0 min 0 min 0 W/m 4,5 km/h (1 Bft) 97,87 %
20.07.2018 22:50 22,1 C 20,6 C 20,0 C 58 % 1009,2 hPa 0,0 l/m 0 min 0 min 0 W/m 6,8 km/h (2 Bft) 98,31 %
20.07.2018 22:52 22,1 C 20,6 C 20,6 C 57 % 1009,2 hPa 0,0 l/m 0 min 0 min 0 W/m 4,5 km/h (1 Bft) 97,14 %
20.07.2018 22:54 22,1 C 21,1 C 20,6 C 58 % 1009,2 hPa 0,0 l/m 0 min 0 min 0 W/m 2,3 km/h (1 Bft) 100,00 %
20.07.2018 22:56 22,1 C 21,1 C 20,6 C 57 % 1009,2 hPa 0,0 l/m 0 min 0 min 0 W/m 9,0 km/h (2 Bft) 100,00 %
20.07.2018 22:58 22,0 C 21,1 C 20,6 C 57 % 1009,2 hPa 0,0 l/m 0 min 0 min 0 W/m 6,8 km/h (2 Bft) 100,00 %
20.07.2018 23:00 22,0 C 21,1 C 20,6 C 57 % 1009,2 hPa 0,0 l/m 0 min 0 min 0 W/m 4,5 km/h (1 Bft) 100,00 %
20.07.2018 23:02 22,0 C 21,1 C 20,6 C 57 % 1009,2 hPa 0,0 l/m 0 min 0 min 0 W/m 4,5 km/h (1 Bft) 100,00 %
20.07.2018 23:04 22,0 C 21,1 C 20,6 C 57 % 1009,2 hPa 0,0 l/m 0 min 0 min 0 W/m 9,0 km/h (2 Bft) 100,00 %
20.07.2018 23:06 22,0 C 21,1 C 20,6 C 56 % 1009,2 hPa 0,0 l/m 0 min 0 min 0 W/m 6,8 km/h (2 Bft) 97,87 %
20.07.2018 23:08 21,9 C 21,1 C 20,6 C 56 % 1009,1 hPa 0,0 l/m 0 min 0 min 0 W/m 4,5 km/h (1 Bft) 100,00 %
20.07.2018 23:10 21,9 C 21,1 C 20,6 C 57 % 1009,2 hPa 0,0 l/m 0 min 0 min 0 W/m 11,3 km/h (2 Bft) 100,00 %
20.07.2018 23:12 21,9 C 21,1 C 20,6 C 57 % 1009,1 hPa 0,0 l/m 0 min 0 min 0 W/m 0,0 km/h (0 Bft) 100,00 %
20.07.2018 23:14 21,9 C 21,1 C 20,6 C 57 % 1009,1 hPa 0,0 l/m 0 min 0 min 0 W/m 6,8 km/h (2 Bft) 100,00 %
20.07.2018 23:16 21,9 C 21,1 C 20,6 C 56 % 1009,1 hPa 0,0 l/m 0 min 0 min 0 W/m 9,0 km/h (2 Bft) 100,00 %
20.07.2018 23:18 21,9 C 21,1 C 20,6 C 57 % 1009,1 hPa 0,0 l/m 0 min 0 min 0 W/m 2,3 km/h (1 Bft) 100,00 %
20.07.2018 23:20 21,9 C 21,1 C 20,6 C 56 % 1009,0 hPa 0,0 l/m 0 min 0 min 0 W/m 9,0 km/h (2 Bft) 100,00 %
20.07.2018 23:22 21,9 C 21,1 C 20,6 C 57 % 1009,0 hPa 0,0 l/m 0 min 0 min 0 W/m 4,5 km/h (1 Bft) 100,00 %
20.07.2018 23:24 21,9 C 21,1 C 20,0 C 57 % 1009,0 hPa 0,0 l/m 0 min 0 min 0 W/m 6,8 km/h (2 Bft) 100,00 %
20.07.2018 23:26 21,9 C 21,1 C 20,0 C 57 % 1009,0 hPa 0,0 l/m 0 min 0 min 0 W/m 4,5 km/h (1 Bft) 100,00 %
20.07.2018 23:28 21,9 C 21,1 C 20,0 C 57 % 1009,0 hPa 0,0 l/m 0 min 0 min 0 W/m 0,0 km/h (0 Bft) 100,00 %
20.07.2018 23:30 21,9 C 21,1 C 20,0 C 57 % 1009,0 hPa 0,0 l/m 0 min 0 min 0 W/m 4,5 km/h (1 Bft) 100,00 %
20.07.2018 23:32 21,9 C 21,1 C 20,6 C 57 % 1009,0 hPa 0,0 l/m 0 min 0 min 0 W/m 4,5 km/h (1 Bft) 100,00 %
20.07.2018 23:34 21,9 C 21,1 C 20,0 C 57 % 1009,0 hPa 0,0 l/m 0 min 0 min 0 W/m 9,0 km/h (2 Bft) 100,00 %
20.07.2018 23:36 21,9 C 21,1 C 20,0 C 57 % 1009,0 hPa 0,0 l/m 0 min 0 min 0 W/m 4,5 km/h (1 Bft) 97,87 %
20.07.2018 23:38 21,8 C 21,1 C 20,0 C 57 % 1008,9 hPa 0,0 l/m 0 min 0 min 0 W/m 4,5 km/h (1 Bft) 97,87 %
20.07.2018 23:40 21,8 C 21,1 C 20,0 C 57 % 1009,0 hPa 0,0 l/m 0 min 0 min 0 W/m 4,5 km/h (1 Bft) 97,87 %
20.07.2018 23:42 21,8 C 21,1 C 20,0 C 57 % 1008,9 hPa 0,0 l/m 0 min 0 min 0 W/m 9,0 km/h (2 Bft) 97,87 %
20.07.2018 23:44 21,8 C 21,1 C 20,0 C 57 % 1008,9 hPa 0,0 l/m 0 min 0 min 0 W/m 4,5 km/h (1 Bft) 97,83 %
20.07.2018 23:46 21,8 C 20,6 C 20,0 C 57 % 1008,9 hPa 0,0 l/m 0 min 0 min 0 W/m 4,5 km/h (1 Bft) 96,23 %
20.07.2018 23:48 21,8 C 20,6 C 20,0 C 57 % 1008,9 hPa 0,0 l/m 0 min 0 min 0 W/m 6,8 km/h (2 Bft) 97,87 %
20.07.2018 23:50 21,8 C 20,6 C 20,0 C 58 % 1008,9 hPa 0,0 l/m 0 min 0 min 0 W/m 4,5 km/h (1 Bft) 97,87 %
20.07.2018 23:52 21,8 C 20,6 C 20,0 C 57 % 1008,9 hPa 0,0 l/m 0 min 0 min 0 W/m 4,5 km/h (1 Bft) 93,62 %
20.07.2018 23:54 21,8 C 20,6 C 20,0 C 57 % 1008,9 hPa 0,0 l/m 0 min 0 min 0 W/m 2,3 km/h (1 Bft) 95,65 %
20.07.2018 23:56 21,8 C 20,6 C 20,0 C 58 % 1008,9 hPa 0,0 l/m 0 min 0 min 0 W/m 4,5 km/h (1 Bft) 97,87 %
20.07.2018 23:58 21,8 C 20,6 C 20,0 C 58 % 1008,9 hPa 0,0 l/m 0 min 0 min 0 W/m 4,5 km/h (1 Bft) 95,74 %
_ Min-Zeit 06:18 05:02 05:06 17:04 20:28 - - - - 00:36 12:56
Minimum _ 14,7 C 13,9 C 13,9 C 39 % 1008,6 hPa - - - - 0,0 km/h (0 Bft) 91,30 %
_ Max-Zeit 17:58 13:28 17:52 07:46 00:30 20:02 12:08 21:28 14:50 20:58 00:50
Maximum _ 29,5 C 35,6 C 27,8 C 88 % 1014,2 hPa 0,2 l/m 4 min 2 min 889 W/m 20,3 km/h
W-NW (4 Bft)
100,00 %
Durchschnitt _ 22,3 C 22,2 C 19,9 C 63 % 1011,2 hPa #0,4 l/m #9:44 h #4 min. 414 W/m 5,4 km/h (1 Bft) 97,52 %
© 2018 W. Hausmann